<?xml version="1.0" encoding="UTF-8" standalone="no" ?>
<gpx xmlns="http://www.topografix.com/GPX/1/1" xmlns:xsi="http://www.w3.org/2001/XMLSchema-instance" xsi:schemaLocation="http://www.topografix.com/GPX/1/1 http://www.topografix.com/GPX/1/1/gpx.xsd" version="1.1" creator="VisuGPX - https://www.visugpx.com">
  <metadata>
    <name>Lauroux - Cirque de Labeil</name>
    <desc><![CDATA[2017-11 - Corniches de Lauroux - Cirque de Labeil

[b]album[/b] : [url]https://photos.app.goo.gl/4poo0uAU3zwYRCq63[/url]
[img]https://blogger.googleusercontent.com/img/b/R29vZ2xl/AVvXsEgrdU0iZKRz5MtIODn5axQSE8U_AieTf2rNEM2Y-hwNWEuvvHsPh55aiE_q-SUHT9_PuZnuQtUJjRo2siUPqRdUDzZ4adfxMFnbJ1401TWqMILK-s3dk0Bc5GXkgEshJrh3eO5B9hZqoQVeDP8ZnGua5tMx-wFbLBELPQ8tFx_8sOCBzlOSBsBCB0TmbMFt/s600/2017-11-18%20Corniches%20Lauroux.JPG[/img]
[b]Idées de randonnées dans la même région[/b]
Parcours : [url]https://www.visugpx.com/membres/24856/causses/larzac/[/url]
Photos : [url]https://jcvertygo.blogspot.com/p/larzac.html[/url]]]></desc>
  </metadata>
  <trk>
    <name><![CDATA[2017-11-18_15h42m05_lautouc]]></name>
    <extensions>
      <line xmlns="http://www.topografix.com/GPX/gpx_style/0/2">
        <color>0000FF</color>
        <width>4</width>
      </line>
    </extensions>
    <trkseg>
      <trkpt lat="43.77586" lon="3.2906">
        <ele>327.1</ele>
        <time>2017-11-18T10:39:58Z</time>
      </trkpt>
      <trkpt lat="43.77592" lon="3.29057">
        <ele>327.1</ele>
        <time>2017-11-18T10:40:05Z</time>
      </trkpt>
      <trkpt lat="43.77595" lon="3.29057">
        <ele>327.75912916808</ele>
        <time>2017-11-18T10:40:08Z</time>
      </trkpt>
      <trkpt lat="43.77667" lon="3.29122">
        <ele>327.7191465449</ele>
        <time>2017-11-18T10:41:28Z</time>
      </trkpt>
      <trkpt lat="43.77691" lon="3.29116">
        <ele>328.38770861506</ele>
        <time>2017-11-18T10:41:36Z</time>
      </trkpt>
      <trkpt lat="43.77698" lon="3.2909">
        <ele>328.76839386675</ele>
        <time>2017-11-18T10:41:55Z</time>
      </trkpt>
      <trkpt lat="43.77697" lon="3.29088">
        <ele>328.76839386675</ele>
        <time>2017-11-18T10:42:00Z</time>
      </trkpt>
      <trkpt lat="43.77703" lon="3.2906">
        <ele>329.34216468265</ele>
        <time>2017-11-18T10:42:10Z</time>
      </trkpt>
      <trkpt lat="43.777" lon="3.29058">
        <ele>329.34216468265</ele>
        <time>2017-11-18T10:42:13Z</time>
      </trkpt>
      <trkpt lat="43.77699" lon="3.29051">
        <ele>329.34216468265</ele>
        <time>2017-11-18T10:42:18Z</time>
      </trkpt>
      <trkpt lat="43.77703" lon="3.29037">
        <ele>329.81868446503</ele>
        <time>2017-11-18T10:42:34Z</time>
      </trkpt>
      <trkpt lat="43.77703" lon="3.29028">
        <ele>329.81868446503</ele>
        <time>2017-11-18T10:42:34Z</time>
      </trkpt>
      <trkpt lat="43.77712" lon="3.29011">
        <ele>330.32893067863</ele>
        <time>2017-11-18T10:42:51Z</time>
      </trkpt>
      <trkpt lat="43.77723" lon="3.28993">
        <ele>330.79218021169</ele>
        <time>2017-11-18T10:42:51Z</time>
      </trkpt>
      <trkpt lat="43.77727" lon="3.28978">
        <ele>331.07628837495</ele>
        <time>2017-11-18T10:43:05Z</time>
      </trkpt>
      <trkpt lat="43.77723" lon="3.28969">
        <ele>331.07628837495</ele>
        <time>2017-11-18T10:43:55Z</time>
      </trkpt>
      <trkpt lat="43.77733" lon="3.28896">
        <ele>329.58064080223</ele>
        <time>2017-11-18T10:44:14Z</time>
      </trkpt>
      <trkpt lat="43.77752" lon="3.28957">
        <ele>326.77303053702</ele>
        <time>2017-11-18T10:45:04Z</time>
      </trkpt>
      <trkpt lat="43.77763" lon="3.28969">
        <ele>323.76106488619</ele>
        <time>2017-11-18T10:45:19Z</time>
      </trkpt>
      <trkpt lat="43.77817" lon="3.2892">
        <ele>319.72993549169</ele>
        <time>2017-11-18T10:46:06Z</time>
      </trkpt>
      <trkpt lat="43.77818" lon="3.28919">
        <ele>319.72993549169</ele>
        <time>2017-11-18T10:46:06Z</time>
      </trkpt>
      <trkpt lat="43.77833" lon="3.28904">
        <ele>315.7849132711</ele>
        <time>2017-11-18T10:46:18Z</time>
      </trkpt>
      <trkpt lat="43.77872" lon="3.28866">
        <ele>311.82058183356</ele>
        <time>2017-11-18T10:47:04Z</time>
      </trkpt>
      <trkpt lat="43.77873" lon="3.28866">
        <ele>311.82058183356</ele>
        <time>2017-11-18T10:47:24Z</time>
      </trkpt>
      <trkpt lat="43.77877" lon="3.28861">
        <ele>311.82058183356</ele>
        <time>2017-11-18T10:47:27Z</time>
      </trkpt>
      <trkpt lat="43.77897" lon="3.28853">
        <ele>309.08806001247</ele>
        <time>2017-11-18T10:47:43Z</time>
      </trkpt>
      <trkpt lat="43.77904" lon="3.2885">
        <ele>309.08806001247</ele>
        <time>2017-11-18T10:47:48Z</time>
      </trkpt>
      <trkpt lat="43.77964" lon="3.28822">
        <ele>308.24012555926</ele>
        <time>2017-11-18T10:48:39Z</time>
      </trkpt>
      <trkpt lat="43.77969" lon="3.2882">
        <ele>308.24012555926</ele>
        <time>2017-11-18T10:48:43Z</time>
      </trkpt>
      <trkpt lat="43.77984" lon="3.28819">
        <ele>307.67751468993</ele>
        <time>2017-11-18T10:48:53Z</time>
      </trkpt>
      <trkpt lat="43.77996" lon="3.28814">
        <ele>307.16402176224</ele>
        <time>2017-11-18T10:49:02Z</time>
      </trkpt>
      <trkpt lat="43.78004" lon="3.28807">
        <ele>306.85244131648</ele>
        <time>2017-11-18T10:49:12Z</time>
      </trkpt>
      <trkpt lat="43.78005" lon="3.28806">
        <ele>306.85244131648</ele>
        <time>2017-11-18T10:49:13Z</time>
      </trkpt>
      <trkpt lat="43.78015" lon="3.28795">
        <ele>307.01329627729</ele>
        <time>2017-11-18T10:49:24Z</time>
      </trkpt>
      <trkpt lat="43.78019" lon="3.28793">
        <ele>307.01329627729</ele>
        <time>2017-11-18T10:49:29Z</time>
      </trkpt>
      <trkpt lat="43.78025" lon="3.2879">
        <ele>307.59065133886</ele>
        <time>2017-11-18T10:49:38Z</time>
      </trkpt>
      <trkpt lat="43.78029" lon="3.28791">
        <ele>307.59065133886</ele>
        <time>2017-11-18T10:49:43Z</time>
      </trkpt>
      <trkpt lat="43.78041" lon="3.28802">
        <ele>308.80431596246</ele>
        <time>2017-11-18T10:50:02Z</time>
      </trkpt>
      <trkpt lat="43.78041" lon="3.28802">
        <ele>308.80431596246</ele>
        <time>2017-11-18T10:50:03Z</time>
      </trkpt>
      <trkpt lat="43.78046" lon="3.28809">
        <ele>308.80431596246</ele>
        <time>2017-11-18T10:50:15Z</time>
      </trkpt>
      <trkpt lat="43.78046" lon="3.28811">
        <ele>310.41752096114</ele>
        <time>2017-11-18T10:50:18Z</time>
      </trkpt>
      <trkpt lat="43.78059" lon="3.28815">
        <ele>312.1943911299</ele>
        <time>2017-11-18T10:50:45Z</time>
      </trkpt>
      <trkpt lat="43.78066" lon="3.28813">
        <ele>312.1943911299</ele>
        <time>2017-11-18T10:50:45Z</time>
      </trkpt>
      <trkpt lat="43.78072" lon="3.28815">
        <ele>314.05783241948</ele>
        <time>2017-11-18T10:51:00Z</time>
      </trkpt>
      <trkpt lat="43.7808" lon="3.28813">
        <ele>314.05783241948</ele>
        <time>2017-11-18T10:51:00Z</time>
      </trkpt>
      <trkpt lat="43.78087" lon="3.28814">
        <ele>315.72674557003</ele>
        <time>2017-11-18T10:51:16Z</time>
      </trkpt>
      <trkpt lat="43.78092" lon="3.28821">
        <ele>315.72674557003</ele>
        <time>2017-11-18T10:51:16Z</time>
      </trkpt>
      <trkpt lat="43.78136" lon="3.28843">
        <ele>317.2044667744</ele>
        <time>2017-11-18T10:52:28Z</time>
      </trkpt>
      <trkpt lat="43.78171" lon="3.28838">
        <ele>318.49322428937</ele>
        <time>2017-11-18T10:53:15Z</time>
      </trkpt>
      <trkpt lat="43.78172" lon="3.28837">
        <ele>318.49322428937</ele>
        <time>2017-11-18T10:53:16Z</time>
      </trkpt>
      <trkpt lat="43.782" lon="3.28805">
        <ele>319.37091342016</ele>
        <time>2017-11-18T10:53:55Z</time>
      </trkpt>
      <trkpt lat="43.78205" lon="3.28796">
        <ele>319.37091342016</ele>
        <time>2017-11-18T10:53:55Z</time>
      </trkpt>
      <trkpt lat="43.78231" lon="3.28763">
        <ele>320.23080309721</ele>
        <time>2017-11-18T10:54:45Z</time>
      </trkpt>
      <trkpt lat="43.78235" lon="3.28758">
        <ele>320.23080309721</ele>
        <time>2017-11-18T10:54:45Z</time>
      </trkpt>
      <trkpt lat="43.78236" lon="3.28749">
        <ele>321.16936509133</ele>
        <time>2017-11-18T10:55:00Z</time>
      </trkpt>
      <trkpt lat="43.78241" lon="3.28745">
        <ele>321.16936509133</ele>
        <time>2017-11-18T10:55:00Z</time>
      </trkpt>
      <trkpt lat="43.78286" lon="3.28712">
        <ele>325.3294328465</ele>
        <time>2017-11-18T10:56:16Z</time>
      </trkpt>
      <trkpt lat="43.78295" lon="3.28707">
        <ele>329.75958581604</ele>
        <time>2017-11-18T10:56:32Z</time>
      </trkpt>
      <trkpt lat="43.78305" lon="3.28702">
        <ele>333.97568579926</ele>
        <time>2017-11-18T10:56:35Z</time>
      </trkpt>
      <trkpt lat="43.78314" lon="3.28705">
        <ele>338.26354754796</ele>
        <time>2017-11-18T10:56:49Z</time>
      </trkpt>
      <trkpt lat="43.78316" lon="3.28706">
        <ele>338.26354754796</ele>
        <time>2017-11-18T10:56:50Z</time>
      </trkpt>
      <trkpt lat="43.78389" lon="3.28675">
        <ele>342.91932686757</ele>
        <time>2017-11-18T10:57:56Z</time>
      </trkpt>
      <trkpt lat="43.78407" lon="3.28684">
        <ele>347.24338288116</ele>
        <time>2017-11-18T10:58:08Z</time>
      </trkpt>
      <trkpt lat="43.78413" lon="3.28687">
        <ele>347.24338288116</ele>
        <time>2017-11-18T10:58:13Z</time>
      </trkpt>
      <trkpt lat="43.78444" lon="3.28707">
        <ele>351.31358051033</ele>
        <time>2017-11-18T10:58:49Z</time>
      </trkpt>
      <trkpt lat="43.78454" lon="3.2871">
        <ele>354.88757347644</ele>
        <time>2017-11-18T10:58:49Z</time>
      </trkpt>
      <trkpt lat="43.78484" lon="3.28719">
        <ele>357.17202319188</ele>
        <time>2017-11-18T10:59:23Z</time>
      </trkpt>
      <trkpt lat="43.78547" lon="3.28725">
        <ele>357.92877419132</ele>
        <time>2017-11-18T11:00:10Z</time>
      </trkpt>
      <trkpt lat="43.78565" lon="3.28715">
        <ele>358.21570818706</ele>
        <time>2017-11-18T11:00:41Z</time>
      </trkpt>
      <trkpt lat="43.78583" lon="3.28717">
        <ele>358.37488422296</ele>
        <time>2017-11-18T11:00:49Z</time>
      </trkpt>
      <trkpt lat="43.78595" lon="3.28725">
        <ele>358.58276099596</ele>
        <time>2017-11-18T11:01:07Z</time>
      </trkpt>
      <trkpt lat="43.78589" lon="3.2873">
        <ele>358.58276099596</ele>
        <time>2017-11-18T11:01:27Z</time>
      </trkpt>
      <trkpt lat="43.78596" lon="3.28735">
        <ele>358.61842788617</ele>
        <time>2017-11-18T11:01:32Z</time>
      </trkpt>
      <trkpt lat="43.78626" lon="3.28755">
        <ele>358.88854965541</ele>
        <time>2017-11-18T11:02:12Z</time>
      </trkpt>
      <trkpt lat="43.78632" lon="3.2876">
        <ele>358.88854965541</ele>
        <time>2017-11-18T11:02:12Z</time>
      </trkpt>
      <trkpt lat="43.78633" lon="3.28761">
        <ele>358.88854965541</ele>
        <time>2017-11-18T11:02:13Z</time>
      </trkpt>
      <trkpt lat="43.78663" lon="3.2878">
        <ele>359.51794118233</ele>
        <time>2017-11-18T11:02:54Z</time>
      </trkpt>
      <trkpt lat="43.78683" lon="3.28794">
        <ele>360.80145028032</ele>
        <time>2017-11-18T11:03:15Z</time>
      </trkpt>
      <trkpt lat="43.78684" lon="3.28795">
        <ele>360.80145028032</ele>
        <time>2017-11-18T11:03:15Z</time>
      </trkpt>
      <trkpt lat="43.78717" lon="3.28802">
        <ele>364.33612525577</ele>
        <time>2017-11-18T11:04:01Z</time>
      </trkpt>
      <trkpt lat="43.78804" lon="3.28754">
        <ele>368.54566423398</ele>
        <time>2017-11-18T11:06:11Z</time>
      </trkpt>
      <trkpt lat="43.788" lon="3.28712">
        <ele>371.82845828479</ele>
        <time>2017-11-18T11:06:56Z</time>
      </trkpt>
      <trkpt lat="43.78801" lon="3.28687">
        <ele>374.51975513455</ele>
        <time>2017-11-18T11:07:21Z</time>
      </trkpt>
      <trkpt lat="43.78801" lon="3.28666">
        <ele>376.61589591335</ele>
        <time>2017-11-18T11:07:42Z</time>
      </trkpt>
      <trkpt lat="43.78799" lon="3.28666">
        <ele>376.61589591335</ele>
        <time>2017-11-18T11:07:44Z</time>
      </trkpt>
      <trkpt lat="43.78818" lon="3.28648">
        <ele>377.31788411964</ele>
        <time>2017-11-18T11:08:39Z</time>
      </trkpt>
      <trkpt lat="43.78823" lon="3.28645">
        <ele>377.31788411964</ele>
        <time>2017-11-18T11:08:39Z</time>
      </trkpt>
      <trkpt lat="43.78823" lon="3.28638">
        <ele>377.49274216381</ele>
        <time>2017-11-18T11:09:00Z</time>
      </trkpt>
      <trkpt lat="43.78811" lon="3.28618">
        <ele>376.55684932322</ele>
        <time>2017-11-18T11:09:32Z</time>
      </trkpt>
      <trkpt lat="43.78817" lon="3.2861">
        <ele>376.55684932322</ele>
        <time>2017-11-18T11:09:42Z</time>
      </trkpt>
      <trkpt lat="43.78819" lon="3.2861">
        <ele>374.83366154556</ele>
        <time>2017-11-18T11:09:43Z</time>
      </trkpt>
      <trkpt lat="43.78825" lon="3.28597">
        <ele>372.36799263192</ele>
        <time>2017-11-18T11:10:10Z</time>
      </trkpt>
      <trkpt lat="43.78824" lon="3.28593">
        <ele>372.36799263192</ele>
        <time>2017-11-18T11:10:38Z</time>
      </trkpt>
      <trkpt lat="43.78823" lon="3.2859">
        <ele>372.36799263192</ele>
        <time>2017-11-18T11:10:53Z</time>
      </trkpt>
      <trkpt lat="43.78818" lon="3.28585">
        <ele>367.82949183659</ele>
        <time>2017-11-18T11:12:38Z</time>
      </trkpt>
      <trkpt lat="43.78822" lon="3.28601">
        <ele>363.4313982256</ele>
        <time>2017-11-18T11:13:00Z</time>
      </trkpt>
      <trkpt lat="43.78822" lon="3.28602">
        <ele>363.4313982256</ele>
        <time>2017-11-18T11:13:01Z</time>
      </trkpt>
      <trkpt lat="43.78823" lon="3.28587">
        <ele>359.17905535213</ele>
        <time>2017-11-18T11:13:19Z</time>
      </trkpt>
      <trkpt lat="43.78822" lon="3.28585">
        <ele>359.17905535213</ele>
        <time>2017-11-18T11:13:19Z</time>
      </trkpt>
      <trkpt lat="43.78821" lon="3.2858">
        <ele>359.17905535213</ele>
        <time>2017-11-18T11:13:35Z</time>
      </trkpt>
      <trkpt lat="43.78821" lon="3.28569">
        <ele>355.1800568918</ele>
        <time>2017-11-18T11:13:49Z</time>
      </trkpt>
      <trkpt lat="43.78822" lon="3.28564">
        <ele>355.1800568918</ele>
        <time>2017-11-18T11:13:53Z</time>
      </trkpt>
      <trkpt lat="43.78814" lon="3.2855">
        <ele>351.28043372437</ele>
        <time>2017-11-18T11:15:17Z</time>
      </trkpt>
      <trkpt lat="43.78816" lon="3.28564">
        <ele>347.67762371548</ele>
        <time>2017-11-18T11:15:45Z</time>
      </trkpt>
      <trkpt lat="43.78827" lon="3.2859">
        <ele>344.27194923549</ele>
        <time>2017-11-18T11:16:43Z</time>
      </trkpt>
      <trkpt lat="43.7883" lon="3.28584">
        <ele>344.27194923549</ele>
        <time>2017-11-18T11:16:48Z</time>
      </trkpt>
      <trkpt lat="43.78833" lon="3.28576">
        <ele>341.16207398404</ele>
        <time>2017-11-18T11:16:57Z</time>
      </trkpt>
      <trkpt lat="43.78833" lon="3.28571">
        <ele>341.16207398404</ele>
        <time>2017-11-18T11:17:03Z</time>
      </trkpt>
      <trkpt lat="43.78832" lon="3.28567">
        <ele>341.16207398404</ele>
        <time>2017-11-18T11:17:08Z</time>
      </trkpt>
      <trkpt lat="43.78832" lon="3.28546">
        <ele>338.48151153912</ele>
        <time>2017-11-18T11:17:18Z</time>
      </trkpt>
      <trkpt lat="43.78825" lon="3.28508">
        <ele>336.17621938276</ele>
        <time>2017-11-18T11:17:53Z</time>
      </trkpt>
      <trkpt lat="43.78823" lon="3.28499">
        <ele>336.17621938276</ele>
        <time>2017-11-18T11:17:53Z</time>
      </trkpt>
      <trkpt lat="43.78824" lon="3.28476">
        <ele>334.4435718396</ele>
        <time>2017-11-18T11:18:21Z</time>
      </trkpt>
      <trkpt lat="43.78835" lon="3.28461">
        <ele>333.25963730989</ele>
        <time>2017-11-18T11:18:35Z</time>
      </trkpt>
      <trkpt lat="43.78843" lon="3.28454">
        <ele>332.41199072809</ele>
        <time>2017-11-18T11:18:46Z</time>
      </trkpt>
      <trkpt lat="43.78844" lon="3.28451">
        <ele>332.41199072809</ele>
        <time>2017-11-18T11:18:48Z</time>
      </trkpt>
      <trkpt lat="43.78856" lon="3.28437">
        <ele>332.11081560987</ele>
        <time>2017-11-18T11:19:07Z</time>
      </trkpt>
      <trkpt lat="43.7886" lon="3.28432">
        <ele>332.11081560987</ele>
        <time>2017-11-18T11:19:11Z</time>
      </trkpt>
      <trkpt lat="43.78898" lon="3.28386">
        <ele>332.76586885595</ele>
        <time>2017-11-18T11:20:00Z</time>
      </trkpt>
      <trkpt lat="43.7891" lon="3.28361">
        <ele>333.63698385085</ele>
        <time>2017-11-18T11:20:23Z</time>
      </trkpt>
      <trkpt lat="43.78914" lon="3.28355">
        <ele>333.63698385085</ele>
        <time>2017-11-18T11:20:23Z</time>
      </trkpt>
      <trkpt lat="43.78944" lon="3.28309">
        <ele>335.89346838929</ele>
        <time>2017-11-18T11:21:33Z</time>
      </trkpt>
      <trkpt lat="43.78947" lon="3.28303">
        <ele>335.89346838929</ele>
        <time>2017-11-18T11:21:35Z</time>
      </trkpt>
      <trkpt lat="43.78964" lon="3.2828">
        <ele>338.77444564613</ele>
        <time>2017-11-18T11:22:09Z</time>
      </trkpt>
      <trkpt lat="43.78971" lon="3.28277">
        <ele>338.77444564613</ele>
        <time>2017-11-18T11:22:09Z</time>
      </trkpt>
      <trkpt lat="43.78972" lon="3.28277">
        <ele>338.77444564613</ele>
        <time>2017-11-18T11:22:10Z</time>
      </trkpt>
      <trkpt lat="43.78977" lon="3.28277">
        <ele>341.77806253248</ele>
        <time>2017-11-18T11:22:26Z</time>
      </trkpt>
      <trkpt lat="43.78991" lon="3.28267">
        <ele>344.98899187438</ele>
        <time>2017-11-18T11:22:48Z</time>
      </trkpt>
      <trkpt lat="43.79" lon="3.28254">
        <ele>348.23937015571</ele>
        <time>2017-11-18T11:23:08Z</time>
      </trkpt>
      <trkpt lat="43.79005" lon="3.28248">
        <ele>348.23937015571</ele>
        <time>2017-11-18T11:23:08Z</time>
      </trkpt>
      <trkpt lat="43.79033" lon="3.28203">
        <ele>351.59013840474</ele>
        <time>2017-11-18T11:23:46Z</time>
      </trkpt>
      <trkpt lat="43.79057" lon="3.28181">
        <ele>355.19824463841</ele>
        <time>2017-11-18T11:24:18Z</time>
      </trkpt>
      <trkpt lat="43.7906" lon="3.28175">
        <ele>355.19824463841</ele>
        <time>2017-11-18T11:24:18Z</time>
      </trkpt>
      <trkpt lat="43.79072" lon="3.28154">
        <ele>358.90529056564</ele>
        <time>2017-11-18T11:24:38Z</time>
      </trkpt>
      <trkpt lat="43.79074" lon="3.28151">
        <ele>358.90529056564</ele>
        <time>2017-11-18T11:24:43Z</time>
      </trkpt>
      <trkpt lat="43.79087" lon="3.28142">
        <ele>362.59316231349</ele>
        <time>2017-11-18T11:25:00Z</time>
      </trkpt>
      <trkpt lat="43.79096" lon="3.28134">
        <ele>366.10924572132</ele>
        <time>2017-11-18T11:25:00Z</time>
      </trkpt>
      <trkpt lat="43.79097" lon="3.28134">
        <ele>366.10924572132</ele>
        <time>2017-11-18T11:25:01Z</time>
      </trkpt>
      <trkpt lat="43.79113" lon="3.2814">
        <ele>369.54333290911</ele>
        <time>2017-11-18T11:25:25Z</time>
      </trkpt>
      <trkpt lat="43.79131" lon="3.28132">
        <ele>372.93559184722</ele>
        <time>2017-11-18T11:25:42Z</time>
      </trkpt>
      <trkpt lat="43.79137" lon="3.28132">
        <ele>372.93559184722</ele>
        <time>2017-11-18T11:25:42Z</time>
      </trkpt>
      <trkpt lat="43.79148" lon="3.2813">
        <ele>376.10714950492</ele>
        <time>2017-11-18T11:25:58Z</time>
      </trkpt>
      <trkpt lat="43.7916" lon="3.28134">
        <ele>378.59019668661</ele>
        <time>2017-11-18T11:25:58Z</time>
      </trkpt>
      <trkpt lat="43.79186" lon="3.2814">
        <ele>380.2416535946</ele>
        <time>2017-11-18T11:26:44Z</time>
      </trkpt>
      <trkpt lat="43.79189" lon="3.28141">
        <ele>380.2416535946</ele>
        <time>2017-11-18T11:26:48Z</time>
      </trkpt>
      <trkpt lat="43.79202" lon="3.28145">
        <ele>381.71002993317</ele>
        <time>2017-11-18T11:27:07Z</time>
      </trkpt>
      <trkpt lat="43.79203" lon="3.28146">
        <ele>381.71002993317</ele>
        <time>2017-11-18T11:27:15Z</time>
      </trkpt>
      <trkpt lat="43.79208" lon="3.28148">
        <ele>381.71002993317</ele>
        <time>2017-11-18T11:27:15Z</time>
      </trkpt>
      <trkpt lat="43.79211" lon="3.28149">
        <ele>382.9768748303</ele>
        <time>2017-11-18T11:27:33Z</time>
      </trkpt>
      <trkpt lat="43.79244" lon="3.28169">
        <ele>383.98255007177</ele>
        <time>2017-11-18T11:28:12Z</time>
      </trkpt>
      <trkpt lat="43.79282" lon="3.28197">
        <ele>384.97554007935</ele>
        <time>2017-11-18T11:29:00Z</time>
      </trkpt>
      <trkpt lat="43.79314" lon="3.28216">
        <ele>386.05649049568</ele>
        <time>2017-11-18T11:29:34Z</time>
      </trkpt>
      <trkpt lat="43.79316" lon="3.28217">
        <ele>386.05649049568</ele>
        <time>2017-11-18T11:29:36Z</time>
      </trkpt>
      <trkpt lat="43.79372" lon="3.2822">
        <ele>387.6358680627</ele>
        <time>2017-11-18T11:30:43Z</time>
      </trkpt>
      <trkpt lat="43.79409" lon="3.28248">
        <ele>390.61199677016</ele>
        <time>2017-11-18T11:31:45Z</time>
      </trkpt>
      <trkpt lat="43.79414" lon="3.28244">
        <ele>390.61199677016</ele>
        <time>2017-11-18T11:31:45Z</time>
      </trkpt>
      <trkpt lat="43.79419" lon="3.28238">
        <ele>393.75077544778</ele>
        <time>2017-11-18T11:32:00Z</time>
      </trkpt>
      <trkpt lat="43.7942" lon="3.28239">
        <ele>393.75077544778</ele>
        <time>2017-11-18T11:32:03Z</time>
      </trkpt>
      <trkpt lat="43.79432" lon="3.28224">
        <ele>397.27871435829</ele>
        <time>2017-11-18T11:32:41Z</time>
      </trkpt>
      <trkpt lat="43.79434" lon="3.28214">
        <ele>397.27871435829</ele>
        <time>2017-11-18T11:32:41Z</time>
      </trkpt>
      <trkpt lat="43.79438" lon="3.28216">
        <ele>401.18836210755</ele>
        <time>2017-11-18T11:32:50Z</time>
      </trkpt>
      <trkpt lat="43.7944" lon="3.28221">
        <ele>401.18836210755</ele>
        <time>2017-11-18T11:32:52Z</time>
      </trkpt>
      <trkpt lat="43.7944" lon="3.28222">
        <ele>401.18836210755</ele>
        <time>2017-11-18T11:32:57Z</time>
      </trkpt>
      <trkpt lat="43.79447" lon="3.2824">
        <ele>405.65941175572</ele>
        <time>2017-11-18T11:33:10Z</time>
      </trkpt>
      <trkpt lat="43.79493" lon="3.28329">
        <ele>411.65025842442</ele>
        <time>2017-11-18T11:34:56Z</time>
      </trkpt>
      <trkpt lat="43.79498" lon="3.28329">
        <ele>411.65025842442</ele>
        <time>2017-11-18T11:34:56Z</time>
      </trkpt>
      <trkpt lat="43.79496" lon="3.2829">
        <ele>417.66474341633</ele>
        <time>2017-11-18T11:35:24Z</time>
      </trkpt>
      <trkpt lat="43.79503" lon="3.28288">
        <ele>417.66474341633</ele>
        <time>2017-11-18T11:35:50Z</time>
      </trkpt>
      <trkpt lat="43.79509" lon="3.28263">
        <ele>424.01894117382</ele>
        <time>2017-11-18T11:36:14Z</time>
      </trkpt>
      <trkpt lat="43.79514" lon="3.28247">
        <ele>430.28380570099</ele>
        <time>2017-11-18T11:36:46Z</time>
      </trkpt>
      <trkpt lat="43.79514" lon="3.28247">
        <ele>430.28380570099</ele>
        <time>2017-11-18T11:36:46Z</time>
      </trkpt>
      <trkpt lat="43.79517" lon="3.28238">
        <ele>430.28380570099</ele>
        <time>2017-11-18T11:36:54Z</time>
      </trkpt>
      <trkpt lat="43.79531" lon="3.28242">
        <ele>438.41326276385</ele>
        <time>2017-11-18T11:37:55Z</time>
      </trkpt>
      <trkpt lat="43.7954" lon="3.28253">
        <ele>446.40504051703</ele>
        <time>2017-11-18T11:38:19Z</time>
      </trkpt>
      <trkpt lat="43.79545" lon="3.2826">
        <ele>446.40504051703</ele>
        <time>2017-11-18T11:38:36Z</time>
      </trkpt>
      <trkpt lat="43.79548" lon="3.28265">
        <ele>454.09234641966</ele>
        <time>2017-11-18T11:38:36Z</time>
      </trkpt>
      <trkpt lat="43.79554" lon="3.28276">
        <ele>461.37957826541</ele>
        <time>2017-11-18T11:38:48Z</time>
      </trkpt>
      <trkpt lat="43.79561" lon="3.28279">
        <ele>461.37957826541</ele>
        <time>2017-11-18T11:39:07Z</time>
      </trkpt>
      <trkpt lat="43.79571" lon="3.28254">
        <ele>469.23231597352</ele>
        <time>2017-11-18T11:39:48Z</time>
      </trkpt>
      <trkpt lat="43.79574" lon="3.28239">
        <ele>476.56843807074</ele>
        <time>2017-11-18T11:40:06Z</time>
      </trkpt>
      <trkpt lat="43.79573" lon="3.28221">
        <ele>483.39668183025</ele>
        <time>2017-11-18T11:40:19Z</time>
      </trkpt>
      <trkpt lat="43.79572" lon="3.28207">
        <ele>489.68374001463</ele>
        <time>2017-11-18T11:40:48Z</time>
      </trkpt>
      <trkpt lat="43.79571" lon="3.28198">
        <ele>489.68374001463</ele>
        <time>2017-11-18T11:40:49Z</time>
      </trkpt>
      <trkpt lat="43.79537" lon="3.28099">
        <ele>498.11104173448</ele>
        <time>2017-11-18T11:42:26Z</time>
      </trkpt>
      <trkpt lat="43.79532" lon="3.28075">
        <ele>506.26995998729</ele>
        <time>2017-11-18T11:42:41Z</time>
      </trkpt>
      <trkpt lat="43.79531" lon="3.28072">
        <ele>506.26995998729</ele>
        <time>2017-11-18T11:42:46Z</time>
      </trkpt>
      <trkpt lat="43.79531" lon="3.28068">
        <ele>506.26995998729</ele>
        <time>2017-11-18T11:42:48Z</time>
      </trkpt>
      <trkpt lat="43.79528" lon="3.28059">
        <ele>513.96301996776</ele>
        <time>2017-11-18T11:43:00Z</time>
      </trkpt>
      <trkpt lat="43.79515" lon="3.28029">
        <ele>521.71537460872</ele>
        <time>2017-11-18T11:43:40Z</time>
      </trkpt>
      <trkpt lat="43.79503" lon="3.28008">
        <ele>529.1777930906</ele>
        <time>2017-11-18T11:44:00Z</time>
      </trkpt>
      <trkpt lat="43.79511" lon="3.27996">
        <ele>536.08568613732</ele>
        <time>2017-11-18T11:44:30Z</time>
      </trkpt>
      <trkpt lat="43.79534" lon="3.27974">
        <ele>542.62835381295</ele>
        <time>2017-11-18T11:45:08Z</time>
      </trkpt>
      <trkpt lat="43.79557" lon="3.27952">
        <ele>548.66556809153</ele>
        <time>2017-11-18T11:45:53Z</time>
      </trkpt>
      <trkpt lat="43.79554" lon="3.27961">
        <ele>548.66556809153</ele>
        <time>2017-11-18T11:46:09Z</time>
      </trkpt>
      <trkpt lat="43.79553" lon="3.27981">
        <ele>554.09810812296</ele>
        <time>2017-11-18T11:46:34Z</time>
      </trkpt>
      <trkpt lat="43.79555" lon="3.27992">
        <ele>554.09810812296</ele>
        <time>2017-11-18T11:46:34Z</time>
      </trkpt>
      <trkpt lat="43.79563" lon="3.27997">
        <ele>558.92265326795</ele>
        <time>2017-11-18T11:46:47Z</time>
      </trkpt>
      <trkpt lat="43.79564" lon="3.27997">
        <ele>558.92265326795</ele>
        <time>2017-11-18T11:46:48Z</time>
      </trkpt>
      <trkpt lat="43.79572" lon="3.27988">
        <ele>563.23913052944</ele>
        <time>2017-11-18T11:47:16Z</time>
      </trkpt>
      <trkpt lat="43.79586" lon="3.27968">
        <ele>567.14193669389</ele>
        <time>2017-11-18T11:47:25Z</time>
      </trkpt>
      <trkpt lat="43.79604" lon="3.28001">
        <ele>571.72887471419</ele>
        <time>2017-11-18T11:48:56Z</time>
      </trkpt>
      <trkpt lat="43.79609" lon="3.27999">
        <ele>571.72887471419</ele>
        <time>2017-11-18T11:48:56Z</time>
      </trkpt>
      <trkpt lat="43.79613" lon="3.27999">
        <ele>575.82493281875</ele>
        <time>2017-11-18T11:49:13Z</time>
      </trkpt>
      <trkpt lat="43.79622" lon="3.27996">
        <ele>579.68341116761</ele>
        <time>2017-11-18T11:49:28Z</time>
      </trkpt>
      <trkpt lat="43.79622" lon="3.27996">
        <ele>579.68341116761</ele>
        <time>2017-11-18T11:49:33Z</time>
      </trkpt>
      <trkpt lat="43.79624" lon="3.27996">
        <ele>579.68341116761</ele>
        <time>2017-11-18T11:49:48Z</time>
      </trkpt>
      <trkpt lat="43.79626" lon="3.27994">
        <ele>579.68341116761</ele>
        <time>2017-11-18T11:49:53Z</time>
      </trkpt>
      <trkpt lat="43.79637" lon="3.27994">
        <ele>583.36701336713</ele>
        <time>2017-11-18T11:50:13Z</time>
      </trkpt>
      <trkpt lat="43.79656" lon="3.28006">
        <ele>586.45901351939</ele>
        <time>2017-11-18T11:50:45Z</time>
      </trkpt>
      <trkpt lat="43.79658" lon="3.28008">
        <ele>586.45901351939</ele>
        <time>2017-11-18T11:50:48Z</time>
      </trkpt>
      <trkpt lat="43.79714" lon="3.28032">
        <ele>590.7368858958</ele>
        <time>2017-11-18T11:52:39Z</time>
      </trkpt>
      <trkpt lat="43.79749" lon="3.28039">
        <ele>595.29361120321</ele>
        <time>2017-11-18T11:53:27Z</time>
      </trkpt>
      <trkpt lat="43.7976" lon="3.28037">
        <ele>599.74936914216</ele>
        <time>2017-11-18T11:53:53Z</time>
      </trkpt>
      <trkpt lat="43.79757" lon="3.28036">
        <ele>599.74936914216</ele>
        <time>2017-11-18T11:53:54Z</time>
      </trkpt>
      <trkpt lat="43.79746" lon="3.28037">
        <ele>604.17061656339</ele>
        <time>2017-11-18T11:54:09Z</time>
      </trkpt>
      <trkpt lat="43.79736" lon="3.28045">
        <ele>608.34535897381</ele>
        <time>2017-11-18T11:54:26Z</time>
      </trkpt>
      <trkpt lat="43.79729" lon="3.2805">
        <ele>608.34535897381</ele>
        <time>2017-11-18T11:54:32Z</time>
      </trkpt>
      <trkpt lat="43.79728" lon="3.28062">
        <ele>612.49592422878</ele>
        <time>2017-11-18T11:54:45Z</time>
      </trkpt>
      <trkpt lat="43.79733" lon="3.28074">
        <ele>616.33850581861</ele>
        <time>2017-11-18T11:55:05Z</time>
      </trkpt>
      <trkpt lat="43.79738" lon="3.28081">
        <ele>616.33850581861</ele>
        <time>2017-11-18T11:55:05Z</time>
      </trkpt>
      <trkpt lat="43.79745" lon="3.2809">
        <ele>620.20196998295</ele>
        <time>2017-11-18T11:55:22Z</time>
      </trkpt>
      <trkpt lat="43.7975" lon="3.28095">
        <ele>620.20196998295</ele>
        <time>2017-11-18T11:55:22Z</time>
      </trkpt>
      <trkpt lat="43.79786" lon="3.28095">
        <ele>625.28455440692</ele>
        <time>2017-11-18T11:56:10Z</time>
      </trkpt>
      <trkpt lat="43.7979" lon="3.28094">
        <ele>625.28455440692</ele>
        <time>2017-11-18T11:56:10Z</time>
      </trkpt>
      <trkpt lat="43.79836" lon="3.2811">
        <ele>631.5402188776</ele>
        <time>2017-11-18T11:56:56Z</time>
      </trkpt>
      <trkpt lat="43.79845" lon="3.28113">
        <ele>631.5402188776</ele>
        <time>2017-11-18T11:56:56Z</time>
      </trkpt>
      <trkpt lat="43.79857" lon="3.28117">
        <ele>637.12164810056</ele>
        <time>2017-11-18T11:57:15Z</time>
      </trkpt>
      <trkpt lat="43.79864" lon="3.28122">
        <ele>637.12164810056</ele>
        <time>2017-11-18T11:57:15Z</time>
      </trkpt>
      <trkpt lat="43.7993" lon="3.28156">
        <ele>642.55294611607</ele>
        <time>2017-11-18T11:58:43Z</time>
      </trkpt>
      <trkpt lat="43.79935" lon="3.28162">
        <ele>642.55294611607</ele>
        <time>2017-11-18T11:59:00Z</time>
      </trkpt>
      <trkpt lat="43.79977" lon="3.28145">
        <ele>648.30578616884</ele>
        <time>2017-11-18T12:00:03Z</time>
      </trkpt>
      <trkpt lat="43.80007" lon="3.28137">
        <ele>654.52812029046</ele>
        <time>2017-11-18T12:01:07Z</time>
      </trkpt>
      <trkpt lat="43.80009" lon="3.28137">
        <ele>654.52812029046</ele>
        <time>2017-11-18T12:01:10Z</time>
      </trkpt>
      <trkpt lat="43.80018" lon="3.28134">
        <ele>660.41902645037</ele>
        <time>2017-11-18T12:01:37Z</time>
      </trkpt>
      <trkpt lat="43.80024" lon="3.28132">
        <ele>660.41902645037</ele>
        <time>2017-11-18T12:01:37Z</time>
      </trkpt>
      <trkpt lat="43.80033" lon="3.28125">
        <ele>666.14532943479</ele>
        <time>2017-11-18T12:02:16Z</time>
      </trkpt>
      <trkpt lat="43.80035" lon="3.28093">
        <ele>671.24242489856</ele>
        <time>2017-11-18T12:02:41Z</time>
      </trkpt>
      <trkpt lat="43.80035" lon="3.28092">
        <ele>671.24242489856</ele>
        <time>2017-11-18T12:02:43Z</time>
      </trkpt>
      <trkpt lat="43.80023" lon="3.28062">
        <ele>675.54106559492</ele>
        <time>2017-11-18T12:03:26Z</time>
      </trkpt>
      <trkpt lat="43.80059" lon="3.27924">
        <ele>679.46318445874</ele>
        <time>2017-11-18T12:06:22Z</time>
      </trkpt>
      <trkpt lat="43.80064" lon="3.27898">
        <ele>682.76670609932</ele>
        <time>2017-11-18T12:06:43Z</time>
      </trkpt>
      <trkpt lat="43.80069" lon="3.27885">
        <ele>685.45967792981</ele>
        <time>2017-11-18T12:06:56Z</time>
      </trkpt>
      <trkpt lat="43.80076" lon="3.27826">
        <ele>687.52244690189</ele>
        <time>2017-11-18T12:08:00Z</time>
      </trkpt>
      <trkpt lat="43.80083" lon="3.27815">
        <ele>689.06825232787</ele>
        <time>2017-11-18T12:08:00Z</time>
      </trkpt>
      <trkpt lat="43.80086" lon="3.27809">
        <ele>689.06825232787</ele>
        <time>2017-11-18T12:08:07Z</time>
      </trkpt>
      <trkpt lat="43.80094" lon="3.27804">
        <ele>690.04489086629</ele>
        <time>2017-11-18T12:08:35Z</time>
      </trkpt>
      <trkpt lat="43.80098" lon="3.27803">
        <ele>690.04489086629</ele>
        <time>2017-11-18T12:08:35Z</time>
      </trkpt>
      <trkpt lat="43.80102" lon="3.27802">
        <ele>690.04489086629</ele>
        <time>2017-11-18T12:08:51Z</time>
      </trkpt>
      <trkpt lat="43.80122" lon="3.27798">
        <ele>691.34225508614</ele>
        <time>2017-11-18T12:09:19Z</time>
      </trkpt>
      <trkpt lat="43.80124" lon="3.27798">
        <ele>691.34225508614</ele>
        <time>2017-11-18T12:09:19Z</time>
      </trkpt>
      <trkpt lat="43.8016" lon="3.27746">
        <ele>692.42918961945</ele>
        <time>2017-11-18T12:10:39Z</time>
      </trkpt>
      <trkpt lat="43.80162" lon="3.27741">
        <ele>692.42918961945</ele>
        <time>2017-11-18T12:10:45Z</time>
      </trkpt>
      <trkpt lat="43.8017" lon="3.27724">
        <ele>692.92930989785</ele>
        <time>2017-11-18T12:11:11Z</time>
      </trkpt>
      <trkpt lat="43.80176" lon="3.27695">
        <ele>692.87006354011</ele>
        <time>2017-11-18T12:12:13Z</time>
      </trkpt>
      <trkpt lat="43.80179" lon="3.27687">
        <ele>692.87006354011</ele>
        <time>2017-11-18T12:12:18Z</time>
      </trkpt>
      <trkpt lat="43.8018" lon="3.27687">
        <ele>692.87006354011</ele>
        <time>2017-11-18T12:12:28Z</time>
      </trkpt>
      <trkpt lat="43.80184" lon="3.27681">
        <ele>692.37914249858</ele>
        <time>2017-11-18T12:12:33Z</time>
      </trkpt>
      <trkpt lat="43.80186" lon="3.27681">
        <ele>692.37914249858</ele>
        <time>2017-11-18T12:12:43Z</time>
      </trkpt>
      <trkpt lat="43.80192" lon="3.27669">
        <ele>691.40291668798</ele>
        <time>2017-11-18T12:13:24Z</time>
      </trkpt>
      <trkpt lat="43.80191" lon="3.27653">
        <ele>690.10897922051</ele>
        <time>2017-11-18T12:13:24Z</time>
      </trkpt>
      <trkpt lat="43.80201" lon="3.27635">
        <ele>688.46587817035</ele>
        <time>2017-11-18T12:13:44Z</time>
      </trkpt>
      <trkpt lat="43.80202" lon="3.27635">
        <ele>688.46587817035</ele>
        <time>2017-11-18T12:13:44Z</time>
      </trkpt>
      <trkpt lat="43.80206" lon="3.27636">
        <ele>688.46587817035</ele>
        <time>2017-11-18T12:13:50Z</time>
      </trkpt>
      <trkpt lat="43.80208" lon="3.27638">
        <ele>688.46587817035</ele>
        <time>2017-11-18T12:14:01Z</time>
      </trkpt>
      <trkpt lat="43.80214" lon="3.27634">
        <ele>686.56043271147</ele>
        <time>2017-11-18T12:14:21Z</time>
      </trkpt>
      <trkpt lat="43.80229" lon="3.27631">
        <ele>684.51671456938</ele>
        <time>2017-11-18T12:14:38Z</time>
      </trkpt>
      <trkpt lat="43.80247" lon="3.27615">
        <ele>682.36323363687</ele>
        <time>2017-11-18T12:14:54Z</time>
      </trkpt>
      <trkpt lat="43.80255" lon="3.2761">
        <ele>682.36323363687</ele>
        <time>2017-11-18T12:15:03Z</time>
      </trkpt>
      <trkpt lat="43.80287" lon="3.27601">
        <ele>680.19837444009</ele>
        <time>2017-11-18T12:15:53Z</time>
      </trkpt>
      <trkpt lat="43.80303" lon="3.27593">
        <ele>678.04085058625</ele>
        <time>2017-11-18T12:16:05Z</time>
      </trkpt>
      <trkpt lat="43.8033" lon="3.27567">
        <ele>676.037239843</ele>
        <time>2017-11-18T12:16:35Z</time>
      </trkpt>
      <trkpt lat="43.80349" lon="3.27553">
        <ele>674.19276064573</ele>
        <time>2017-11-18T12:16:58Z</time>
      </trkpt>
      <trkpt lat="43.80352" lon="3.27552">
        <ele>674.19276064573</ele>
        <time>2017-11-18T12:17:23Z</time>
      </trkpt>
      <trkpt lat="43.80361" lon="3.27541">
        <ele>672.12222603206</ele>
        <time>2017-11-18T12:17:38Z</time>
      </trkpt>
      <trkpt lat="43.80372" lon="3.27515">
        <ele>670.16062724961</ele>
        <time>2017-11-18T12:18:07Z</time>
      </trkpt>
      <trkpt lat="43.80375" lon="3.27512">
        <ele>670.16062724961</ele>
        <time>2017-11-18T12:18:07Z</time>
      </trkpt>
      <trkpt lat="43.80399" lon="3.27499">
        <ele>668.64636754348</ele>
        <time>2017-11-18T12:18:49Z</time>
      </trkpt>
      <trkpt lat="43.804" lon="3.27499">
        <ele>668.64636754348</ele>
        <time>2017-11-18T12:18:49Z</time>
      </trkpt>
      <trkpt lat="43.80411" lon="3.2749">
        <ele>667.30037793107</ele>
        <time>2017-11-18T12:19:10Z</time>
      </trkpt>
      <trkpt lat="43.80412" lon="3.27486">
        <ele>667.30037793107</ele>
        <time>2017-11-18T12:19:10Z</time>
      </trkpt>
      <trkpt lat="43.80413" lon="3.27483">
        <ele>667.30037793107</ele>
        <time>2017-11-18T12:19:13Z</time>
      </trkpt>
      <trkpt lat="43.80444" lon="3.27433">
        <ele>666.92953862079</ele>
        <time>2017-11-18T12:20:06Z</time>
      </trkpt>
      <trkpt lat="43.80499" lon="3.27358">
        <ele>668.22057955235</ele>
        <time>2017-11-18T12:21:34Z</time>
      </trkpt>
      <trkpt lat="43.80509" lon="3.27355">
        <ele>669.57091329574</ele>
        <time>2017-11-18T12:22:00Z</time>
      </trkpt>
      <trkpt lat="43.80509" lon="3.27353">
        <ele>669.57091329574</ele>
        <time>2017-11-18T12:22:00Z</time>
      </trkpt>
      <trkpt lat="43.80517" lon="3.27321">
        <ele>671.22438142708</ele>
        <time>2017-11-18T12:22:38Z</time>
      </trkpt>
      <trkpt lat="43.8055" lon="3.27289">
        <ele>672.9300547261</ele>
        <time>2017-11-18T12:23:37Z</time>
      </trkpt>
      <trkpt lat="43.80562" lon="3.27282">
        <ele>674.48369863443</ele>
        <time>2017-11-18T12:23:53Z</time>
      </trkpt>
      <trkpt lat="43.80565" lon="3.2728">
        <ele>674.48369863443</ele>
        <time>2017-11-18T12:23:54Z</time>
      </trkpt>
      <trkpt lat="43.80577" lon="3.27287">
        <ele>675.89787561026</ele>
        <time>2017-11-18T12:24:11Z</time>
      </trkpt>
      <trkpt lat="43.80598" lon="3.27289">
        <ele>677.34277616372</ele>
        <time>2017-11-18T12:24:43Z</time>
      </trkpt>
      <trkpt lat="43.80611" lon="3.27288">
        <ele>678.86037512515</ele>
        <time>2017-11-18T12:24:59Z</time>
      </trkpt>
      <trkpt lat="43.80629" lon="3.27279">
        <ele>680.33052218726</ele>
        <time>2017-11-18T12:25:26Z</time>
      </trkpt>
      <trkpt lat="43.80649" lon="3.27266">
        <ele>681.81466656372</ele>
        <time>2017-11-18T12:26:00Z</time>
      </trkpt>
      <trkpt lat="43.80663" lon="3.2724">
        <ele>683.71530014065</ele>
        <time>2017-11-18T12:26:35Z</time>
      </trkpt>
      <trkpt lat="43.80662" lon="3.27239">
        <ele>683.71530014065</ele>
        <time>2017-11-18T12:26:35Z</time>
      </trkpt>
      <trkpt lat="43.80663" lon="3.27237">
        <ele>683.71530014065</ele>
        <time>2017-11-18T12:26:38Z</time>
      </trkpt>
      <trkpt lat="43.80666" lon="3.27212">
        <ele>685.72660798044</ele>
        <time>2017-11-18T12:26:55Z</time>
      </trkpt>
      <trkpt lat="43.80666" lon="3.2721">
        <ele>685.72660798044</ele>
        <time>2017-11-18T12:26:56Z</time>
      </trkpt>
      <trkpt lat="43.80669" lon="3.27191">
        <ele>687.7232252605</ele>
        <time>2017-11-18T12:27:16Z</time>
      </trkpt>
      <trkpt lat="43.80679" lon="3.27168">
        <ele>689.84823352605</ele>
        <time>2017-11-18T12:27:41Z</time>
      </trkpt>
      <trkpt lat="43.80682" lon="3.27165">
        <ele>689.84823352605</ele>
        <time>2017-11-18T12:27:41Z</time>
      </trkpt>
      <trkpt lat="43.80685" lon="3.27144">
        <ele>692.14719497434</ele>
        <time>2017-11-18T12:27:56Z</time>
      </trkpt>
      <trkpt lat="43.80688" lon="3.27098">
        <ele>694.77696668287</ele>
        <time>2017-11-18T12:28:36Z</time>
      </trkpt>
      <trkpt lat="43.80687" lon="3.27093">
        <ele>694.77696668287</ele>
        <time>2017-11-18T12:28:41Z</time>
      </trkpt>
      <trkpt lat="43.80668" lon="3.27056">
        <ele>697.52154034153</ele>
        <time>2017-11-18T12:29:20Z</time>
      </trkpt>
      <trkpt lat="43.80662" lon="3.27037">
        <ele>700.06505010521</ele>
        <time>2017-11-18T12:29:20Z</time>
      </trkpt>
      <trkpt lat="43.8066" lon="3.27013">
        <ele>702.4611717577</ele>
        <time>2017-11-18T12:29:38Z</time>
      </trkpt>
      <trkpt lat="43.80669" lon="3.26961">
        <ele>704.87526806573</ele>
        <time>2017-11-18T12:30:18Z</time>
      </trkpt>
      <trkpt lat="43.80678" lon="3.26945">
        <ele>707.04252672995</ele>
        <time>2017-11-18T12:30:34Z</time>
      </trkpt>
      <trkpt lat="43.80677" lon="3.26939">
        <ele>707.04252672995</ele>
        <time>2017-11-18T12:30:40Z</time>
      </trkpt>
      <trkpt lat="43.80675" lon="3.26923">
        <ele>708.91999754527</ele>
        <time>2017-11-18T12:31:00Z</time>
      </trkpt>
      <trkpt lat="43.8068" lon="3.26918">
        <ele>708.91999754527</ele>
        <time>2017-11-18T12:31:00Z</time>
      </trkpt>
      <trkpt lat="43.80683" lon="3.2691">
        <ele>710.43984967409</ele>
        <time>2017-11-18T12:31:18Z</time>
      </trkpt>
      <trkpt lat="43.80631" lon="3.26868">
        <ele>710.94936425089</ele>
        <time>2017-11-18T12:32:34Z</time>
      </trkpt>
      <trkpt lat="43.80632" lon="3.26857">
        <ele>710.94936425089</ele>
        <time>2017-11-18T12:32:48Z</time>
      </trkpt>
      <trkpt lat="43.80631" lon="3.26856">
        <ele>710.69684714744</ele>
        <time>2017-11-18T12:32:53Z</time>
      </trkpt>
      <trkpt lat="43.8063" lon="3.26858">
        <ele>710.69684714744</ele>
        <time>2017-11-18T12:33:08Z</time>
      </trkpt>
      <trkpt lat="43.80631" lon="3.26862">
        <ele>710.69684714744</ele>
        <time>2017-11-18T12:33:13Z</time>
      </trkpt>
      <trkpt lat="43.80629" lon="3.26866">
        <ele>710.69684714744</ele>
        <time>2017-11-18T12:33:18Z</time>
      </trkpt>
      <trkpt lat="43.80577" lon="3.26869">
        <ele>707.72399063053</ele>
        <time>2017-11-18T12:34:14Z</time>
      </trkpt>
      <trkpt lat="43.80562" lon="3.26852">
        <ele>704.30228928238</ele>
        <time>2017-11-18T12:34:33Z</time>
      </trkpt>
      <trkpt lat="43.80553" lon="3.26839">
        <ele>700.31826467658</ele>
        <time>2017-11-18T12:35:44Z</time>
      </trkpt>
      <trkpt lat="43.80542" lon="3.26765">
        <ele>696.47529016229</ele>
        <time>2017-11-18T12:36:12Z</time>
      </trkpt>
      <trkpt lat="43.80539" lon="3.26749">
        <ele>692.90575763048</ele>
        <time>2017-11-18T12:36:12Z</time>
      </trkpt>
      <trkpt lat="43.80539" lon="3.26748">
        <ele>692.90575763048</ele>
        <time>2017-11-18T12:36:20Z</time>
      </trkpt>
      <trkpt lat="43.80532" lon="3.26752">
        <ele>692.90575763048</ele>
        <time>2017-11-18T12:36:45Z</time>
      </trkpt>
      <trkpt lat="43.80528" lon="3.26743">
        <ele>689.63054370237</ele>
        <time>2017-11-18T12:36:45Z</time>
      </trkpt>
      <trkpt lat="43.80511" lon="3.26733">
        <ele>686.68240667755</ele>
        <time>2017-11-18T12:37:04Z</time>
      </trkpt>
      <trkpt lat="43.80452" lon="3.26637">
        <ele>684.00412333969</ele>
        <time>2017-11-18T12:38:30Z</time>
      </trkpt>
      <trkpt lat="43.80451" lon="3.26633">
        <ele>684.00412333969</ele>
        <time>2017-11-18T12:38:33Z</time>
      </trkpt>
      <trkpt lat="43.80447" lon="3.26618">
        <ele>681.57053239207</ele>
        <time>2017-11-18T12:38:39Z</time>
      </trkpt>
      <trkpt lat="43.80444" lon="3.26612">
        <ele>681.57053239207</ele>
        <time>2017-11-18T12:38:43Z</time>
      </trkpt>
      <trkpt lat="43.80442" lon="3.26611">
        <ele>681.57053239207</ele>
        <time>2017-11-18T12:38:48Z</time>
      </trkpt>
      <trkpt lat="43.80437" lon="3.26593">
        <ele>679.6456385541</ele>
        <time>2017-11-18T12:39:13Z</time>
      </trkpt>
      <trkpt lat="43.80429" lon="3.26573">
        <ele>677.78066623151</ele>
        <time>2017-11-18T12:40:00Z</time>
      </trkpt>
      <trkpt lat="43.80415" lon="3.26553">
        <ele>676.09262006814</ele>
        <time>2017-11-18T12:40:26Z</time>
      </trkpt>
      <trkpt lat="43.80406" lon="3.26551">
        <ele>676.09262006814</ele>
        <time>2017-11-18T12:40:26Z</time>
      </trkpt>
      <trkpt lat="43.80386" lon="3.26526">
        <ele>674.67477138441</ele>
        <time>2017-11-18T12:41:00Z</time>
      </trkpt>
      <trkpt lat="43.80385" lon="3.26525">
        <ele>674.67477138441</ele>
        <time>2017-11-18T12:41:01Z</time>
      </trkpt>
      <trkpt lat="43.80376" lon="3.26513">
        <ele>673.30991913273</ele>
        <time>2017-11-18T12:41:25Z</time>
      </trkpt>
      <trkpt lat="43.80371" lon="3.26506">
        <ele>673.30991913273</ele>
        <time>2017-11-18T12:41:25Z</time>
      </trkpt>
      <trkpt lat="43.80352" lon="3.26467">
        <ele>672.09907675868</ele>
        <time>2017-11-18T12:42:33Z</time>
      </trkpt>
      <trkpt lat="43.80341" lon="3.26418">
        <ele>671.22165171605</ele>
        <time>2017-11-18T12:43:08Z</time>
      </trkpt>
      <trkpt lat="43.80328" lon="3.26405">
        <ele>670.5833240051</ele>
        <time>2017-11-18T12:43:32Z</time>
      </trkpt>
      <trkpt lat="43.80321" lon="3.26393">
        <ele>670.11023905906</ele>
        <time>2017-11-18T12:43:40Z</time>
      </trkpt>
      <trkpt lat="43.8032" lon="3.26391">
        <ele>670.11023905906</ele>
        <time>2017-11-18T12:43:41Z</time>
      </trkpt>
      <trkpt lat="43.80291" lon="3.26318">
        <ele>670.02153412813</ele>
        <time>2017-11-18T12:44:38Z</time>
      </trkpt>
      <trkpt lat="43.80291" lon="3.26317">
        <ele>670.02153412813</ele>
        <time>2017-11-18T12:44:39Z</time>
      </trkpt>
      <trkpt lat="43.8028" lon="3.26279">
        <ele>670.05783549848</ele>
        <time>2017-11-18T12:45:13Z</time>
      </trkpt>
      <trkpt lat="43.80224" lon="3.26163">
        <ele>670.67004185725</ele>
        <time>2017-11-18T12:47:00Z</time>
      </trkpt>
      <trkpt lat="43.80221" lon="3.26149">
        <ele>671.51037734977</ele>
        <time>2017-11-18T12:47:24Z</time>
      </trkpt>
      <trkpt lat="43.80218" lon="3.26141">
        <ele>671.51037734977</ele>
        <time>2017-11-18T12:47:24Z</time>
      </trkpt>
      <trkpt lat="43.80225" lon="3.26109">
        <ele>672.70259019991</ele>
        <time>2017-11-18T12:47:51Z</time>
      </trkpt>
      <trkpt lat="43.80227" lon="3.26105">
        <ele>672.70259019991</ele>
        <time>2017-11-18T12:47:53Z</time>
      </trkpt>
      <trkpt lat="43.8022" lon="3.26089">
        <ele>673.88467637982</ele>
        <time>2017-11-18T12:48:08Z</time>
      </trkpt>
      <trkpt lat="43.80194" lon="3.26078">
        <ele>675.52818933534</ele>
        <time>2017-11-18T12:48:59Z</time>
      </trkpt>
      <trkpt lat="43.80188" lon="3.26081">
        <ele>675.52818933534</ele>
        <time>2017-11-18T12:48:59Z</time>
      </trkpt>
      <trkpt lat="43.80185" lon="3.26081">
        <ele>677.3913617838</ele>
        <time>2017-11-18T12:49:13Z</time>
      </trkpt>
      <trkpt lat="43.80142" lon="3.26071">
        <ele>679.94126386609</ele>
        <time>2017-11-18T12:50:08Z</time>
      </trkpt>
      <trkpt lat="43.80138" lon="3.26065">
        <ele>679.94126386609</ele>
        <time>2017-11-18T12:50:08Z</time>
      </trkpt>
      <trkpt lat="43.80132" lon="3.26061">
        <ele>682.68640165767</ele>
        <time>2017-11-18T12:50:24Z</time>
      </trkpt>
      <trkpt lat="43.80129" lon="3.26058">
        <ele>682.68640165767</ele>
        <time>2017-11-18T12:50:41Z</time>
      </trkpt>
      <trkpt lat="43.80101" lon="3.26024">
        <ele>685.96346087182</ele>
        <time>2017-11-18T12:51:36Z</time>
      </trkpt>
      <trkpt lat="43.80099" lon="3.26014">
        <ele>685.96346087182</ele>
        <time>2017-11-18T12:51:36Z</time>
      </trkpt>
      <trkpt lat="43.80103" lon="3.25987">
        <ele>689.56414090624</ele>
        <time>2017-11-18T12:52:28Z</time>
      </trkpt>
      <trkpt lat="43.80106" lon="3.25981">
        <ele>689.56414090624</ele>
        <time>2017-11-18T12:52:28Z</time>
      </trkpt>
      <trkpt lat="43.80109" lon="3.25977">
        <ele>693.2657800868</ele>
        <time>2017-11-18T12:52:45Z</time>
      </trkpt>
      <trkpt lat="43.80114" lon="3.25973">
        <ele>693.2657800868</ele>
        <time>2017-11-18T12:52:45Z</time>
      </trkpt>
      <trkpt lat="43.80113" lon="3.25905">
        <ele>697.76978754343</ele>
        <time>2017-11-18T12:53:47Z</time>
      </trkpt>
      <trkpt lat="43.80109" lon="3.25898">
        <ele>697.76978754343</ele>
        <time>2017-11-18T12:53:47Z</time>
      </trkpt>
      <trkpt lat="43.80109" lon="3.25897">
        <ele>697.76978754343</ele>
        <time>2017-11-18T12:53:48Z</time>
      </trkpt>
      <trkpt lat="43.79948" lon="3.25825">
        <ele>703.60863667253</ele>
        <time>2017-11-18T12:56:52Z</time>
      </trkpt>
      <trkpt lat="43.7992" lon="3.25818">
        <ele>709.09602434399</ele>
        <time>2017-11-18T12:57:16Z</time>
      </trkpt>
      <trkpt lat="43.79909" lon="3.25815">
        <ele>714.16945933614</ele>
        <time>2017-11-18T12:57:16Z</time>
      </trkpt>
      <trkpt lat="43.79852" lon="3.25799">
        <ele>719.01741823007</ele>
        <time>2017-11-18T12:58:07Z</time>
      </trkpt>
      <trkpt lat="43.79832" lon="3.25801">
        <ele>723.41190852982</ele>
        <time>2017-11-18T12:58:18Z</time>
      </trkpt>
      <trkpt lat="43.79765" lon="3.25825">
        <ele>727.60439125704</ele>
        <time>2017-11-18T12:59:15Z</time>
      </trkpt>
      <trkpt lat="43.79741" lon="3.2584">
        <ele>731.51167200347</ele>
        <time>2017-11-18T12:59:46Z</time>
      </trkpt>
      <trkpt lat="43.79716" lon="3.25854">
        <ele>735.15865279653</ele>
        <time>2017-11-18T13:00:01Z</time>
      </trkpt>
      <trkpt lat="43.79714" lon="3.25855">
        <ele>735.15865279653</ele>
        <time>2017-11-18T13:00:02Z</time>
      </trkpt>
      <trkpt lat="43.79692" lon="3.25865">
        <ele>738.56945197446</ele>
        <time>2017-11-18T13:00:27Z</time>
      </trkpt>
      <trkpt lat="43.79681" lon="3.25868">
        <ele>741.66652070539</ele>
        <time>2017-11-18T13:00:27Z</time>
      </trkpt>
      <trkpt lat="43.79629" lon="3.25878">
        <ele>744.73948595329</ele>
        <time>2017-11-18T13:01:13Z</time>
      </trkpt>
      <trkpt lat="43.79604" lon="3.25844">
        <ele>746.77449503493</ele>
        <time>2017-11-18T13:01:48Z</time>
      </trkpt>
      <trkpt lat="43.79569" lon="3.25819">
        <ele>748.07475058561</ele>
        <time>2017-11-18T13:02:23Z</time>
      </trkpt>
      <trkpt lat="43.79565" lon="3.25815">
        <ele>748.07475058561</ele>
        <time>2017-11-18T13:02:32Z</time>
      </trkpt>
      <trkpt lat="43.79489" lon="3.25796">
        <ele>749.37028697319</ele>
        <time>2017-11-18T13:03:34Z</time>
      </trkpt>
      <trkpt lat="43.79481" lon="3.25792">
        <ele>749.37028697319</ele>
        <time>2017-11-18T13:03:36Z</time>
      </trkpt>
      <trkpt lat="43.79457" lon="3.25756">
        <ele>750.15609531292</ele>
        <time>2017-11-18T13:04:15Z</time>
      </trkpt>
      <trkpt lat="43.79456" lon="3.25754">
        <ele>750.15609531292</ele>
        <time>2017-11-18T13:04:15Z</time>
      </trkpt>
      <trkpt lat="43.79419" lon="3.25731">
        <ele>750.91709176434</ele>
        <time>2017-11-18T13:05:12Z</time>
      </trkpt>
      <trkpt lat="43.79411" lon="3.25725">
        <ele>751.58408312718</ele>
        <time>2017-11-18T13:05:48Z</time>
      </trkpt>
      <trkpt lat="43.79408" lon="3.25715">
        <ele>751.58408312718</ele>
        <time>2017-11-18T13:05:48Z</time>
      </trkpt>
      <trkpt lat="43.79388" lon="3.25699">
        <ele>752.2231445256</ele>
        <time>2017-11-18T13:06:22Z</time>
      </trkpt>
      <trkpt lat="43.79378" lon="3.25696">
        <ele>752.85254264159</ele>
        <time>2017-11-18T13:06:22Z</time>
      </trkpt>
      <trkpt lat="43.79369" lon="3.25689">
        <ele>753.44617584145</ele>
        <time>2017-11-18T13:06:47Z</time>
      </trkpt>
      <trkpt lat="43.79369" lon="3.25688">
        <ele>753.44617584145</ele>
        <time>2017-11-18T13:06:47Z</time>
      </trkpt>
      <trkpt lat="43.7936" lon="3.25689">
        <ele>753.44617584145</ele>
        <time>2017-11-18T13:06:55Z</time>
      </trkpt>
      <trkpt lat="43.79355" lon="3.25689">
        <ele>754.36922091142</ele>
        <time>2017-11-18T13:07:04Z</time>
      </trkpt>
      <trkpt lat="43.79349" lon="3.25688">
        <ele>754.36922091142</ele>
        <time>2017-11-18T13:07:04Z</time>
      </trkpt>
      <trkpt lat="43.79331" lon="3.25678">
        <ele>755.3395694855</ele>
        <time>2017-11-18T13:07:36Z</time>
      </trkpt>
      <trkpt lat="43.79331" lon="3.25678">
        <ele>755.3395694855</ele>
        <time>2017-11-18T13:07:36Z</time>
      </trkpt>
      <trkpt lat="43.79295" lon="3.25667">
        <ele>757.23431018817</ele>
        <time>2017-11-18T13:08:30Z</time>
      </trkpt>
      <trkpt lat="43.79284" lon="3.25653">
        <ele>759.43692395167</ele>
        <time>2017-11-18T13:08:56Z</time>
      </trkpt>
      <trkpt lat="43.79278" lon="3.25649">
        <ele>759.43692395167</ele>
        <time>2017-11-18T13:08:56Z</time>
      </trkpt>
      <trkpt lat="43.79273" lon="3.25646">
        <ele>761.67805906233</ele>
        <time>2017-11-18T13:09:05Z</time>
      </trkpt>
      <trkpt lat="43.792" lon="3.25619">
        <ele>764.93309214017</ele>
        <time>2017-11-18T13:10:22Z</time>
      </trkpt>
      <trkpt lat="43.79199" lon="3.25619">
        <ele>764.93309214017</ele>
        <time>2017-11-18T13:10:23Z</time>
      </trkpt>
      <trkpt lat="43.79195" lon="3.25616">
        <ele>764.93309214017</ele>
        <time>2017-11-18T13:10:28Z</time>
      </trkpt>
      <trkpt lat="43.79176" lon="3.2559">
        <ele>768.22956474221</ele>
        <time>2017-11-18T13:10:59Z</time>
      </trkpt>
      <trkpt lat="43.79183" lon="3.2555">
        <ele>771.25730096455</ele>
        <time>2017-11-18T13:11:41Z</time>
      </trkpt>
      <trkpt lat="43.79182" lon="3.25543">
        <ele>771.25730096455</ele>
        <time>2017-11-18T13:11:53Z</time>
      </trkpt>
      <trkpt lat="43.79177" lon="3.25526">
        <ele>773.48478365612</ele>
        <time>2017-11-18T13:12:36Z</time>
      </trkpt>
      <trkpt lat="43.79171" lon="3.25513">
        <ele>775.25773914854</ele>
        <time>2017-11-18T13:12:36Z</time>
      </trkpt>
      <trkpt lat="43.79168" lon="3.25507">
        <ele>775.25773914854</ele>
        <time>2017-11-18T13:12:44Z</time>
      </trkpt>
      <trkpt lat="43.79159" lon="3.25499">
        <ele>776.76817755375</ele>
        <time>2017-11-18T13:13:01Z</time>
      </trkpt>
      <trkpt lat="43.79158" lon="3.25498">
        <ele>776.76817755375</ele>
        <time>2017-11-18T13:13:01Z</time>
      </trkpt>
      <trkpt lat="43.79145" lon="3.25495">
        <ele>777.97867225234</ele>
        <time>2017-11-18T13:13:18Z</time>
      </trkpt>
      <trkpt lat="43.79123" lon="3.25461">
        <ele>778.94194242944</ele>
        <time>2017-11-18T13:13:49Z</time>
      </trkpt>
      <trkpt lat="43.79096" lon="3.2544">
        <ele>779.39055918828</ele>
        <time>2017-11-18T13:14:33Z</time>
      </trkpt>
      <trkpt lat="43.79077" lon="3.25438">
        <ele>779.42411021678</ele>
        <time>2017-11-18T13:15:02Z</time>
      </trkpt>
      <trkpt lat="43.79051" lon="3.25439">
        <ele>779.03519786264</ele>
        <time>2017-11-18T13:15:50Z</time>
      </trkpt>
      <trkpt lat="43.79043" lon="3.25443">
        <ele>779.03519786264</ele>
        <time>2017-11-18T13:15:50Z</time>
      </trkpt>
      <trkpt lat="43.79031" lon="3.2543">
        <ele>778.016421332</ele>
        <time>2017-11-18T13:16:16Z</time>
      </trkpt>
      <trkpt lat="43.78974" lon="3.25394">
        <ele>775.88916037633</ele>
        <time>2017-11-18T13:17:50Z</time>
      </trkpt>
      <trkpt lat="43.78962" lon="3.25377">
        <ele>773.42357118767</ele>
        <time>2017-11-18T13:18:06Z</time>
      </trkpt>
      <trkpt lat="43.78948" lon="3.25365">
        <ele>770.84415054532</ele>
        <time>2017-11-18T13:18:24Z</time>
      </trkpt>
      <trkpt lat="43.78866" lon="3.25372">
        <ele>767.72504704116</ele>
        <time>2017-11-18T13:20:29Z</time>
      </trkpt>
      <trkpt lat="43.78862" lon="3.25384">
        <ele>764.84038779325</ele>
        <time>2017-11-18T13:20:59Z</time>
      </trkpt>
      <trkpt lat="43.78851" lon="3.25423">
        <ele>762.21489306784</ele>
        <time>2017-11-18T13:21:23Z</time>
      </trkpt>
      <trkpt lat="43.78824" lon="3.25498">
        <ele>760.23084292575</ele>
        <time>2017-11-18T13:22:23Z</time>
      </trkpt>
      <trkpt lat="43.78818" lon="3.25515">
        <ele>758.46223801148</ele>
        <time>2017-11-18T13:22:38Z</time>
      </trkpt>
      <trkpt lat="43.78812" lon="3.25559">
        <ele>757.13323171706</ele>
        <time>2017-11-18T13:23:54Z</time>
      </trkpt>
      <trkpt lat="43.7881" lon="3.25568">
        <ele>757.13323171706</ele>
        <time>2017-11-18T13:23:54Z</time>
      </trkpt>
      <trkpt lat="43.78805" lon="3.25579">
        <ele>755.90242891691</ele>
        <time>2017-11-18T13:24:13Z</time>
      </trkpt>
      <trkpt lat="43.78785" lon="3.25694">
        <ele>754.49623581057</ele>
        <time>2017-11-18T13:25:35Z</time>
      </trkpt>
      <trkpt lat="43.78784" lon="3.25702">
        <ele>754.49623581057</ele>
        <time>2017-11-18T13:25:35Z</time>
      </trkpt>
      <trkpt lat="43.78768" lon="3.2576">
        <ele>753.05050750068</ele>
        <time>2017-11-18T13:26:23Z</time>
      </trkpt>
      <trkpt lat="43.78767" lon="3.25784">
        <ele>751.66216220622</ele>
        <time>2017-11-18T13:26:49Z</time>
      </trkpt>
      <trkpt lat="43.78767" lon="3.25796">
        <ele>750.27647717551</ele>
        <time>2017-11-18T13:27:06Z</time>
      </trkpt>
      <trkpt lat="43.78764" lon="3.25806">
        <ele>750.27647717551</ele>
        <time>2017-11-18T13:27:06Z</time>
      </trkpt>
      <trkpt lat="43.78724" lon="3.25861">
        <ele>748.68396745953</ele>
        <time>2017-11-18T13:28:04Z</time>
      </trkpt>
      <trkpt lat="43.7871" lon="3.2589">
        <ele>747.07996243909</ele>
        <time>2017-11-18T13:28:51Z</time>
      </trkpt>
      <trkpt lat="43.78713" lon="3.25891">
        <ele>747.07996243909</ele>
        <time>2017-11-18T13:29:40Z</time>
      </trkpt>
      <trkpt lat="43.7871" lon="3.25908">
        <ele>745.67404115008</ele>
        <time>2017-11-18T13:29:51Z</time>
      </trkpt>
      <trkpt lat="43.78708" lon="3.25916">
        <ele>745.67404115008</ele>
        <time>2017-11-18T13:30:00Z</time>
      </trkpt>
      <trkpt lat="43.78692" lon="3.25958">
        <ele>744.58751965426</ele>
        <time>2017-11-18T13:31:51Z</time>
      </trkpt>
      <trkpt lat="43.78675" lon="3.25961">
        <ele>743.70107372811</ele>
        <time>2017-11-18T13:42:00Z</time>
      </trkpt>
      <trkpt lat="43.78691" lon="3.25952">
        <ele>742.74480986834</ele>
        <time>2017-11-18T13:42:59Z</time>
      </trkpt>
      <trkpt lat="43.78698" lon="3.25948">
        <ele>742.74480986834</ele>
        <time>2017-11-18T13:44:26Z</time>
      </trkpt>
      <trkpt lat="43.78702" lon="3.25953">
        <ele>741.6847771205</ele>
        <time>2017-11-18T13:44:26Z</time>
      </trkpt>
      <trkpt lat="43.78706" lon="3.26049">
        <ele>739.50961135163</ele>
        <time>2017-11-18T13:45:47Z</time>
      </trkpt>
      <trkpt lat="43.78671" lon="3.26067">
        <ele>737.36033217095</ele>
        <time>2017-11-18T13:46:48Z</time>
      </trkpt>
      <trkpt lat="43.78655" lon="3.2608">
        <ele>734.49243832424</ele>
        <time>2017-11-18T13:46:48Z</time>
      </trkpt>
      <trkpt lat="43.78658" lon="3.26089">
        <ele>734.49243832424</ele>
        <time>2017-11-18T13:47:08Z</time>
      </trkpt>
      <trkpt lat="43.78665" lon="3.26096">
        <ele>731.01050242959</ele>
        <time>2017-11-18T13:47:28Z</time>
      </trkpt>
      <trkpt lat="43.78664" lon="3.261">
        <ele>731.01050242959</ele>
        <time>2017-11-18T13:47:33Z</time>
      </trkpt>
      <trkpt lat="43.78682" lon="3.2614">
        <ele>727.2722866113</ele>
        <time>2017-11-18T13:48:46Z</time>
      </trkpt>
      <trkpt lat="43.78688" lon="3.26148">
        <ele>727.2722866113</ele>
        <time>2017-11-18T13:48:46Z</time>
      </trkpt>
      <trkpt lat="43.78691" lon="3.26158">
        <ele>723.43679713245</ele>
        <time>2017-11-18T13:49:00Z</time>
      </trkpt>
      <trkpt lat="43.78686" lon="3.26175">
        <ele>719.69459527213</ele>
        <time>2017-11-18T13:49:12Z</time>
      </trkpt>
      <trkpt lat="43.78686" lon="3.26177">
        <ele>719.69459527213</ele>
        <time>2017-11-18T13:49:13Z</time>
      </trkpt>
      <trkpt lat="43.78678" lon="3.26196">
        <ele>715.78936748174</ele>
        <time>2017-11-18T13:49:45Z</time>
      </trkpt>
      <trkpt lat="43.78677" lon="3.26205">
        <ele>715.78936748174</ele>
        <time>2017-11-18T13:49:45Z</time>
      </trkpt>
      <trkpt lat="43.78674" lon="3.26244">
        <ele>710.99381624216</ele>
        <time>2017-11-18T13:50:57Z</time>
      </trkpt>
      <trkpt lat="43.78643" lon="3.26284">
        <ele>706.20707761351</ele>
        <time>2017-11-18T13:51:31Z</time>
      </trkpt>
      <trkpt lat="43.78642" lon="3.26286">
        <ele>706.20707761351</ele>
        <time>2017-11-18T13:51:33Z</time>
      </trkpt>
      <trkpt lat="43.78627" lon="3.26333">
        <ele>701.71427748744</ele>
        <time>2017-11-18T13:52:41Z</time>
      </trkpt>
      <trkpt lat="43.78628" lon="3.26334">
        <ele>701.71427748744</ele>
        <time>2017-11-18T13:52:41Z</time>
      </trkpt>
      <trkpt lat="43.78624" lon="3.26353">
        <ele>697.98020569008</ele>
        <time>2017-11-18T13:53:11Z</time>
      </trkpt>
      <trkpt lat="43.78625" lon="3.26354">
        <ele>697.98020569008</ele>
        <time>2017-11-18T13:53:28Z</time>
      </trkpt>
      <trkpt lat="43.78626" lon="3.26376">
        <ele>695.13041971585</ele>
        <time>2017-11-18T13:53:48Z</time>
      </trkpt>
      <trkpt lat="43.78601" lon="3.26408">
        <ele>692.0102664597</ele>
        <time>2017-11-18T13:54:26Z</time>
      </trkpt>
      <trkpt lat="43.78586" lon="3.26456">
        <ele>688.29972358931</ele>
        <time>2017-11-18T13:55:00Z</time>
      </trkpt>
      <trkpt lat="43.78586" lon="3.26457">
        <ele>688.29972358931</ele>
        <time>2017-11-18T13:55:00Z</time>
      </trkpt>
      <trkpt lat="43.78569" lon="3.26499">
        <ele>684.30887879208</ele>
        <time>2017-11-18T13:55:31Z</time>
      </trkpt>
      <trkpt lat="43.78569" lon="3.26501">
        <ele>684.30887879208</ele>
        <time>2017-11-18T13:55:33Z</time>
      </trkpt>
      <trkpt lat="43.78627" lon="3.26645">
        <ele>677.96208212127</ele>
        <time>2017-11-18T13:58:03Z</time>
      </trkpt>
      <trkpt lat="43.78628" lon="3.26648">
        <ele>677.96208212127</ele>
        <time>2017-11-18T13:58:03Z</time>
      </trkpt>
      <trkpt lat="43.78628" lon="3.26661">
        <ele>671.73783309919</ele>
        <time>2017-11-18T13:58:29Z</time>
      </trkpt>
      <trkpt lat="43.7861" lon="3.26683">
        <ele>666.18813910168</ele>
        <time>2017-11-18T13:59:13Z</time>
      </trkpt>
      <trkpt lat="43.78589" lon="3.26698">
        <ele>660.89990973302</ele>
        <time>2017-11-18T13:59:13Z</time>
      </trkpt>
      <trkpt lat="43.78577" lon="3.26701">
        <ele>656.16663694666</ele>
        <time>2017-11-18T13:59:28Z</time>
      </trkpt>
      <trkpt lat="43.78538" lon="3.26716">
        <ele>652.57538695883</ele>
        <time>2017-11-18T14:00:08Z</time>
      </trkpt>
      <trkpt lat="43.78515" lon="3.26757">
        <ele>649.54248046552</ele>
        <time>2017-11-18T14:00:41Z</time>
      </trkpt>
      <trkpt lat="43.78484" lon="3.26783">
        <ele>647.70692289587</ele>
        <time>2017-11-18T14:00:57Z</time>
      </trkpt>
      <trkpt lat="43.78481" lon="3.26784">
        <ele>647.70692289587</ele>
        <time>2017-11-18T14:00:57Z</time>
      </trkpt>
      <trkpt lat="43.78479" lon="3.26784">
        <ele>647.70692289587</ele>
        <time>2017-11-18T14:01:04Z</time>
      </trkpt>
      <trkpt lat="43.78476" lon="3.26784">
        <ele>647.70692289587</ele>
        <time>2017-11-18T14:01:04Z</time>
      </trkpt>
      <trkpt lat="43.78419" lon="3.26836">
        <ele>647.32564720778</ele>
        <time>2017-11-18T14:02:03Z</time>
      </trkpt>
      <trkpt lat="43.78363" lon="3.26943">
        <ele>646.38420727654</ele>
        <time>2017-11-18T14:03:26Z</time>
      </trkpt>
      <trkpt lat="43.78357" lon="3.26953">
        <ele>646.38420727654</ele>
        <time>2017-11-18T14:03:26Z</time>
      </trkpt>
      <trkpt lat="43.78357" lon="3.26955">
        <ele>645.55380425539</ele>
        <time>2017-11-18T14:03:28Z</time>
      </trkpt>
      <trkpt lat="43.78292" lon="3.2713">
        <ele>642.55915518916</ele>
        <time>2017-11-18T14:06:22Z</time>
      </trkpt>
      <trkpt lat="43.78288" lon="3.2713">
        <ele>642.55915518916</ele>
        <time>2017-11-18T14:06:46Z</time>
      </trkpt>
      <trkpt lat="43.78287" lon="3.27135">
        <ele>642.55915518916</ele>
        <time>2017-11-18T14:07:08Z</time>
      </trkpt>
      <trkpt lat="43.78287" lon="3.27147">
        <ele>639.69337337984</ele>
        <time>2017-11-18T14:07:18Z</time>
      </trkpt>
      <trkpt lat="43.78285" lon="3.27154">
        <ele>639.69337337984</ele>
        <time>2017-11-18T14:07:23Z</time>
      </trkpt>
      <trkpt lat="43.78282" lon="3.2716">
        <ele>637.12066126075</ele>
        <time>2017-11-18T14:07:28Z</time>
      </trkpt>
      <trkpt lat="43.7828" lon="3.27171">
        <ele>637.12066126075</ele>
        <time>2017-11-18T14:07:36Z</time>
      </trkpt>
      <trkpt lat="43.78264" lon="3.27207">
        <ele>634.05544215147</ele>
        <time>2017-11-18T14:07:59Z</time>
      </trkpt>
      <trkpt lat="43.78242" lon="3.2726">
        <ele>629.28108712926</ele>
        <time>2017-11-18T14:08:41Z</time>
      </trkpt>
      <trkpt lat="43.78233" lon="3.2728">
        <ele>624.25456586913</ele>
        <time>2017-11-18T14:08:52Z</time>
      </trkpt>
      <trkpt lat="43.78209" lon="3.27305">
        <ele>618.36645598549</ele>
        <time>2017-11-18T14:09:24Z</time>
      </trkpt>
      <trkpt lat="43.78202" lon="3.27311">
        <ele>618.36645598549</ele>
        <time>2017-11-18T14:09:25Z</time>
      </trkpt>
      <trkpt lat="43.78201" lon="3.27312">
        <ele>612.95662276515</ele>
        <time>2017-11-18T14:09:28Z</time>
      </trkpt>
      <trkpt lat="43.78181" lon="3.27353">
        <ele>607.7085910538</ele>
        <time>2017-11-18T14:09:56Z</time>
      </trkpt>
      <trkpt lat="43.78181" lon="3.27355">
        <ele>607.7085910538</ele>
        <time>2017-11-18T14:09:56Z</time>
      </trkpt>
      <trkpt lat="43.7818" lon="3.27359">
        <ele>607.7085910538</ele>
        <time>2017-11-18T14:10:07Z</time>
      </trkpt>
      <trkpt lat="43.78179" lon="3.27357">
        <ele>607.7085910538</ele>
        <time>2017-11-18T14:10:23Z</time>
      </trkpt>
      <trkpt lat="43.78176" lon="3.27361">
        <ele>603.25081268513</ele>
        <time>2017-11-18T14:10:28Z</time>
      </trkpt>
      <trkpt lat="43.78173" lon="3.2736">
        <ele>603.25081268513</ele>
        <time>2017-11-18T14:10:33Z</time>
      </trkpt>
      <trkpt lat="43.78173" lon="3.27361">
        <ele>603.25081268513</ele>
        <time>2017-11-18T14:10:38Z</time>
      </trkpt>
      <trkpt lat="43.78174" lon="3.27363">
        <ele>603.25081268513</ele>
        <time>2017-11-18T14:10:43Z</time>
      </trkpt>
      <trkpt lat="43.78174" lon="3.27365">
        <ele>603.25081268513</ele>
        <time>2017-11-18T14:10:48Z</time>
      </trkpt>
      <trkpt lat="43.78174" lon="3.27366">
        <ele>603.25081268513</ele>
        <time>2017-11-18T14:10:53Z</time>
      </trkpt>
      <trkpt lat="43.78173" lon="3.27371">
        <ele>599.44261949427</ele>
        <time>2017-11-18T14:10:58Z</time>
      </trkpt>
      <trkpt lat="43.7817" lon="3.27376">
        <ele>599.44261949427</ele>
        <time>2017-11-18T14:11:03Z</time>
      </trkpt>
      <trkpt lat="43.78167" lon="3.27382">
        <ele>596.28137537045</ele>
        <time>2017-11-18T14:11:08Z</time>
      </trkpt>
      <trkpt lat="43.78162" lon="3.27388">
        <ele>596.28137537045</ele>
        <time>2017-11-18T14:11:13Z</time>
      </trkpt>
      <trkpt lat="43.78157" lon="3.27394">
        <ele>593.69059606322</ele>
        <time>2017-11-18T14:11:18Z</time>
      </trkpt>
      <trkpt lat="43.78152" lon="3.274">
        <ele>593.69059606322</ele>
        <time>2017-11-18T14:11:23Z</time>
      </trkpt>
      <trkpt lat="43.78147" lon="3.27405">
        <ele>591.62647950299</ele>
        <time>2017-11-18T14:11:28Z</time>
      </trkpt>
      <trkpt lat="43.78142" lon="3.27413">
        <ele>591.62647950299</ele>
        <time>2017-11-18T14:11:33Z</time>
      </trkpt>
      <trkpt lat="43.78135" lon="3.27418">
        <ele>590.09005653298</ele>
        <time>2017-11-18T14:11:40Z</time>
      </trkpt>
      <trkpt lat="43.78129" lon="3.27426">
        <ele>590.09005653298</ele>
        <time>2017-11-18T14:11:48Z</time>
      </trkpt>
      <trkpt lat="43.78115" lon="3.27432">
        <ele>588.96539349701</ele>
        <time>2017-11-18T14:12:01Z</time>
      </trkpt>
      <trkpt lat="43.78115" lon="3.27428">
        <ele>588.96539349701</ele>
        <time>2017-11-18T14:12:06Z</time>
      </trkpt>
      <trkpt lat="43.78126" lon="3.27403">
        <ele>588.05735559369</ele>
        <time>2017-11-18T14:12:29Z</time>
      </trkpt>
      <trkpt lat="43.7813" lon="3.27391">
        <ele>587.37180909329</ele>
        <time>2017-11-18T14:12:31Z</time>
      </trkpt>
      <trkpt lat="43.78156" lon="3.27342">
        <ele>586.89911026593</ele>
        <time>2017-11-18T14:13:07Z</time>
      </trkpt>
      <trkpt lat="43.7816" lon="3.27329">
        <ele>586.687354117</ele>
        <time>2017-11-18T14:13:23Z</time>
      </trkpt>
      <trkpt lat="43.78166" lon="3.27315">
        <ele>586.57862437364</ele>
        <time>2017-11-18T14:13:23Z</time>
      </trkpt>
      <trkpt lat="43.78179" lon="3.27255">
        <ele>586.55605160238</ele>
        <time>2017-11-18T14:13:57Z</time>
      </trkpt>
      <trkpt lat="43.78159" lon="3.27144">
        <ele>585.53739991643</ele>
        <time>2017-11-18T14:15:06Z</time>
      </trkpt>
      <trkpt lat="43.78135" lon="3.27087">
        <ele>583.69010653153</ele>
        <time>2017-11-18T14:15:38Z</time>
      </trkpt>
      <trkpt lat="43.78108" lon="3.2706">
        <ele>582.0219822833</ele>
        <time>2017-11-18T14:16:04Z</time>
      </trkpt>
      <trkpt lat="43.78102" lon="3.27041">
        <ele>580.39998291843</ele>
        <time>2017-11-18T14:16:30Z</time>
      </trkpt>
      <trkpt lat="43.78091" lon="3.27058">
        <ele>579.08991887844</ele>
        <time>2017-11-18T14:16:40Z</time>
      </trkpt>
      <trkpt lat="43.78077" lon="3.27066">
        <ele>577.86174922329</ele>
        <time>2017-11-18T14:17:17Z</time>
      </trkpt>
      <trkpt lat="43.78091" lon="3.27101">
        <ele>576.21400219116</ele>
        <time>2017-11-18T14:18:03Z</time>
      </trkpt>
      <trkpt lat="43.78082" lon="3.27114">
        <ele>573.913925428</ele>
        <time>2017-11-18T14:19:00Z</time>
      </trkpt>
      <trkpt lat="43.78082" lon="3.27119">
        <ele>573.913925428</ele>
        <time>2017-11-18T14:19:00Z</time>
      </trkpt>
      <trkpt lat="43.78086" lon="3.27129">
        <ele>571.59807920291</ele>
        <time>2017-11-18T14:19:11Z</time>
      </trkpt>
      <trkpt lat="43.78087" lon="3.27132">
        <ele>571.59807920291</ele>
        <time>2017-11-18T14:19:13Z</time>
      </trkpt>
      <trkpt lat="43.78095" lon="3.27164">
        <ele>569.12146794504</ele>
        <time>2017-11-18T14:19:40Z</time>
      </trkpt>
      <trkpt lat="43.78099" lon="3.27212">
        <ele>566.09092236672</ele>
        <time>2017-11-18T14:20:25Z</time>
      </trkpt>
      <trkpt lat="43.78096" lon="3.27217">
        <ele>566.09092236672</ele>
        <time>2017-11-18T14:20:25Z</time>
      </trkpt>
      <trkpt lat="43.78083" lon="3.27234">
        <ele>563.0373162392</ele>
        <time>2017-11-18T14:20:49Z</time>
      </trkpt>
      <trkpt lat="43.78077" lon="3.27239">
        <ele>563.0373162392</ele>
        <time>2017-11-18T14:20:53Z</time>
      </trkpt>
      <trkpt lat="43.78061" lon="3.27264">
        <ele>559.24216555135</ele>
        <time>2017-11-18T14:21:25Z</time>
      </trkpt>
      <trkpt lat="43.78057" lon="3.27268">
        <ele>559.24216555135</ele>
        <time>2017-11-18T14:21:28Z</time>
      </trkpt>
      <trkpt lat="43.78035" lon="3.27293">
        <ele>555.0507215234</ele>
        <time>2017-11-18T14:22:00Z</time>
      </trkpt>
      <trkpt lat="43.78033" lon="3.27295">
        <ele>555.0507215234</ele>
        <time>2017-11-18T14:22:00Z</time>
      </trkpt>
      <trkpt lat="43.78025" lon="3.27285">
        <ele>550.43820114894</ele>
        <time>2017-11-18T14:22:40Z</time>
      </trkpt>
      <trkpt lat="43.78024" lon="3.27279">
        <ele>550.43820114894</ele>
        <time>2017-11-18T14:22:43Z</time>
      </trkpt>
      <trkpt lat="43.78028" lon="3.2726">
        <ele>545.25318834589</ele>
        <time>2017-11-18T14:23:03Z</time>
      </trkpt>
      <trkpt lat="43.7803" lon="3.27252">
        <ele>545.25318834589</ele>
        <time>2017-11-18T14:23:05Z</time>
      </trkpt>
      <trkpt lat="43.77964" lon="3.27301">
        <ele>537.69975872713</ele>
        <time>2017-11-18T14:24:37Z</time>
      </trkpt>
      <trkpt lat="43.77947" lon="3.27307">
        <ele>530.12686307346</ele>
        <time>2017-11-18T14:24:58Z</time>
      </trkpt>
      <trkpt lat="43.77944" lon="3.27306">
        <ele>530.12686307346</ele>
        <time>2017-11-18T14:24:58Z</time>
      </trkpt>
      <trkpt lat="43.77943" lon="3.27306">
        <ele>530.12686307346</ele>
        <time>2017-11-18T14:24:59Z</time>
      </trkpt>
      <trkpt lat="43.77918" lon="3.27307">
        <ele>522.07369953728</ele>
        <time>2017-11-18T14:25:37Z</time>
      </trkpt>
      <trkpt lat="43.7791" lon="3.27307">
        <ele>522.07369953728</ele>
        <time>2017-11-18T14:25:37Z</time>
      </trkpt>
      <trkpt lat="43.7783" lon="3.27339">
        <ele>511.80319098093</ele>
        <time>2017-11-18T14:27:13Z</time>
      </trkpt>
      <trkpt lat="43.77816" lon="3.27362">
        <ele>501.80473686688</ele>
        <time>2017-11-18T14:27:38Z</time>
      </trkpt>
      <trkpt lat="43.77808" lon="3.27378">
        <ele>492.20787444294</ele>
        <time>2017-11-18T14:27:54Z</time>
      </trkpt>
      <trkpt lat="43.77802" lon="3.27396">
        <ele>483.08807037132</ele>
        <time>2017-11-18T14:28:10Z</time>
      </trkpt>
      <trkpt lat="43.77793" lon="3.27422">
        <ele>474.34074024463</ele>
        <time>2017-11-18T14:28:38Z</time>
      </trkpt>
      <trkpt lat="43.77787" lon="3.27445">
        <ele>465.66591206262</ele>
        <time>2017-11-18T14:29:00Z</time>
      </trkpt>
      <trkpt lat="43.77783" lon="3.27461">
        <ele>457.46247138797</ele>
        <time>2017-11-18T14:29:21Z</time>
      </trkpt>
      <trkpt lat="43.77777" lon="3.27479">
        <ele>450.01189445861</ele>
        <time>2017-11-18T14:29:40Z</time>
      </trkpt>
      <trkpt lat="43.7777" lon="3.27491">
        <ele>443.37078000897</ele>
        <time>2017-11-18T14:29:48Z</time>
      </trkpt>
      <trkpt lat="43.77728" lon="3.27587">
        <ele>436.03255502529</ele>
        <time>2017-11-18T14:31:15Z</time>
      </trkpt>
      <trkpt lat="43.77735" lon="3.27625">
        <ele>428.79341609505</ele>
        <time>2017-11-18T14:31:38Z</time>
      </trkpt>
      <trkpt lat="43.77734" lon="3.27641">
        <ele>422.15986692719</ele>
        <time>2017-11-18T14:32:00Z</time>
      </trkpt>
      <trkpt lat="43.7773" lon="3.27653">
        <ele>416.18123541049</ele>
        <time>2017-11-18T14:32:00Z</time>
      </trkpt>
      <trkpt lat="43.77727" lon="3.27673">
        <ele>410.64164623475</ele>
        <time>2017-11-18T14:32:25Z</time>
      </trkpt>
      <trkpt lat="43.77728" lon="3.27685">
        <ele>410.64164623475</ele>
        <time>2017-11-18T14:32:25Z</time>
      </trkpt>
      <trkpt lat="43.77723" lon="3.27716">
        <ele>404.83512750297</ele>
        <time>2017-11-18T14:33:00Z</time>
      </trkpt>
      <trkpt lat="43.77715" lon="3.27736">
        <ele>399.54910642964</ele>
        <time>2017-11-18T14:33:25Z</time>
      </trkpt>
      <trkpt lat="43.77712" lon="3.27743">
        <ele>399.54910642964</ele>
        <time>2017-11-18T14:33:25Z</time>
      </trkpt>
      <trkpt lat="43.77712" lon="3.27764">
        <ele>394.80525495045</ele>
        <time>2017-11-18T14:34:06Z</time>
      </trkpt>
      <trkpt lat="43.77719" lon="3.27807">
        <ele>390.8812439095</ele>
        <time>2017-11-18T14:34:48Z</time>
      </trkpt>
      <trkpt lat="43.77738" lon="3.27866">
        <ele>387.35445729688</ele>
        <time>2017-11-18T14:35:33Z</time>
      </trkpt>
      <trkpt lat="43.77734" lon="3.27888">
        <ele>384.37959083583</ele>
        <time>2017-11-18T14:35:57Z</time>
      </trkpt>
      <trkpt lat="43.77733" lon="3.2789">
        <ele>384.37959083583</ele>
        <time>2017-11-18T14:35:57Z</time>
      </trkpt>
      <trkpt lat="43.77727" lon="3.27938">
        <ele>380.85885778842</ele>
        <time>2017-11-18T14:37:18Z</time>
      </trkpt>
      <trkpt lat="43.77724" lon="3.27941">
        <ele>380.85885778842</ele>
        <time>2017-11-18T14:40:57Z</time>
      </trkpt>
      <trkpt lat="43.77701" lon="3.27781">
        <ele>376.3096688561</ele>
        <time>2017-11-18T14:42:44Z</time>
      </trkpt>
      <trkpt lat="43.77697" lon="3.2777">
        <ele>372.46368647466</ele>
        <time>2017-11-18T14:42:44Z</time>
      </trkpt>
      <trkpt lat="43.77697" lon="3.27768">
        <ele>372.46368647466</ele>
        <time>2017-11-18T14:42:45Z</time>
      </trkpt>
      <trkpt lat="43.77682" lon="3.27736">
        <ele>369.20833118176</ele>
        <time>2017-11-18T14:43:13Z</time>
      </trkpt>
      <trkpt lat="43.77682" lon="3.27729">
        <ele>369.20833118176</ele>
        <time>2017-11-18T14:43:13Z</time>
      </trkpt>
      <trkpt lat="43.77688" lon="3.27705">
        <ele>366.39428606937</ele>
        <time>2017-11-18T14:43:38Z</time>
      </trkpt>
      <trkpt lat="43.77688" lon="3.27692">
        <ele>364.1124491668</ele>
        <time>2017-11-18T14:43:38Z</time>
      </trkpt>
      <trkpt lat="43.77679" lon="3.27662">
        <ele>362.11402515778</ele>
        <time>2017-11-18T14:43:57Z</time>
      </trkpt>
      <trkpt lat="43.77679" lon="3.2766">
        <ele>362.11402515778</ele>
        <time>2017-11-18T14:43:58Z</time>
      </trkpt>
      <trkpt lat="43.77678" lon="3.27649">
        <ele>360.54235012107</ele>
        <time>2017-11-18T14:44:03Z</time>
      </trkpt>
      <trkpt lat="43.77666" lon="3.27591">
        <ele>359.1687462585</ele>
        <time>2017-11-18T14:44:51Z</time>
      </trkpt>
      <trkpt lat="43.77659" lon="3.27591">
        <ele>359.1687462585</ele>
        <time>2017-11-18T14:44:51Z</time>
      </trkpt>
      <trkpt lat="43.77645" lon="3.27683">
        <ele>357.88167693588</ele>
        <time>2017-11-18T14:45:51Z</time>
      </trkpt>
      <trkpt lat="43.77645" lon="3.27695">
        <ele>357.88167693588</ele>
        <time>2017-11-18T14:46:00Z</time>
      </trkpt>
      <trkpt lat="43.77645" lon="3.27739">
        <ele>356.7217173236</ele>
        <time>2017-11-18T14:46:33Z</time>
      </trkpt>
      <trkpt lat="43.7765" lon="3.27788">
        <ele>355.99999577895</ele>
        <time>2017-11-18T14:47:00Z</time>
      </trkpt>
      <trkpt lat="43.77657" lon="3.27862">
        <ele>355.42721876396</ele>
        <time>2017-11-18T14:47:37Z</time>
      </trkpt>
      <trkpt lat="43.77649" lon="3.27895">
        <ele>354.50448250509</ele>
        <time>2017-11-18T14:48:02Z</time>
      </trkpt>
      <trkpt lat="43.77685" lon="3.28032">
        <ele>352.17981516711</ele>
        <time>2017-11-18T14:50:00Z</time>
      </trkpt>
      <trkpt lat="43.77688" lon="3.28038">
        <ele>352.17981516711</ele>
        <time>2017-11-18T14:50:00Z</time>
      </trkpt>
      <trkpt lat="43.77754" lon="3.28213">
        <ele>350.17750991725</ele>
        <time>2017-11-18T14:52:04Z</time>
      </trkpt>
      <trkpt lat="43.77751" lon="3.28235">
        <ele>348.29309115735</ele>
        <time>2017-11-18T14:52:26Z</time>
      </trkpt>
      <trkpt lat="43.77748" lon="3.28246">
        <ele>348.29309115735</ele>
        <time>2017-11-18T14:52:26Z</time>
      </trkpt>
      <trkpt lat="43.77756" lon="3.28273">
        <ele>346.72607507712</ele>
        <time>2017-11-18T14:52:41Z</time>
      </trkpt>
      <trkpt lat="43.77757" lon="3.28275">
        <ele>346.72607507712</ele>
        <time>2017-11-18T14:52:42Z</time>
      </trkpt>
      <trkpt lat="43.77767" lon="3.28309">
        <ele>345.41565321313</ele>
        <time>2017-11-18T14:53:17Z</time>
      </trkpt>
      <trkpt lat="43.77795" lon="3.28368">
        <ele>344.23292966018</ele>
        <time>2017-11-18T14:53:48Z</time>
      </trkpt>
      <trkpt lat="43.77802" lon="3.28392">
        <ele>343.51950645371</ele>
        <time>2017-11-18T14:54:12Z</time>
      </trkpt>
      <trkpt lat="43.77803" lon="3.28404">
        <ele>343.51950645371</ele>
        <time>2017-11-18T14:54:12Z</time>
      </trkpt>
      <trkpt lat="43.77798" lon="3.2847">
        <ele>342.30822791363</ele>
        <time>2017-11-18T14:55:00Z</time>
      </trkpt>
      <trkpt lat="43.77798" lon="3.28491">
        <ele>341.10251172186</ele>
        <time>2017-11-18T14:55:21Z</time>
      </trkpt>
      <trkpt lat="43.77799" lon="3.28503">
        <ele>341.10251172186</ele>
        <time>2017-11-18T14:55:21Z</time>
      </trkpt>
      <trkpt lat="43.77794" lon="3.28565">
        <ele>338.51000270363</ele>
        <time>2017-11-18T14:56:01Z</time>
      </trkpt>
      <trkpt lat="43.77795" lon="3.28568">
        <ele>338.51000270363</ele>
        <time>2017-11-18T14:56:03Z</time>
      </trkpt>
      <trkpt lat="43.77776" lon="3.28558">
        <ele>335.42085535892</ele>
        <time>2017-11-18T14:56:50Z</time>
      </trkpt>
      <trkpt lat="43.77771" lon="3.2858">
        <ele>332.54619417921</ele>
        <time>2017-11-18T14:57:08Z</time>
      </trkpt>
      <trkpt lat="43.77783" lon="3.28629">
        <ele>329.86722976918</ele>
        <time>2017-11-18T14:57:39Z</time>
      </trkpt>
      <trkpt lat="43.77782" lon="3.28641">
        <ele>329.86722976918</ele>
        <time>2017-11-18T14:57:39Z</time>
      </trkpt>
      <trkpt lat="43.77786" lon="3.28686">
        <ele>327.32301071334</ele>
        <time>2017-11-18T14:58:13Z</time>
      </trkpt>
      <trkpt lat="43.77788" lon="3.28698">
        <ele>325.05867250634</ele>
        <time>2017-11-18T14:58:16Z</time>
      </trkpt>
      <trkpt lat="43.77792" lon="3.28721">
        <ele>322.83343980794</ele>
        <time>2017-11-18T14:58:32Z</time>
      </trkpt>
      <trkpt lat="43.77792" lon="3.28722">
        <ele>322.83343980794</ele>
        <time>2017-11-18T14:58:33Z</time>
      </trkpt>
      <trkpt lat="43.77793" lon="3.28729">
        <ele>322.83343980794</ele>
        <time>2017-11-18T14:58:38Z</time>
      </trkpt>
      <trkpt lat="43.77793" lon="3.28735">
        <ele>320.75578974532</ele>
        <time>2017-11-18T14:58:43Z</time>
      </trkpt>
      <trkpt lat="43.77793" lon="3.28742">
        <ele>320.75578974532</ele>
        <time>2017-11-18T14:58:48Z</time>
      </trkpt>
      <trkpt lat="43.77793" lon="3.28783">
        <ele>318.21988566975</ele>
        <time>2017-11-18T14:59:25Z</time>
      </trkpt>
      <trkpt lat="43.77789" lon="3.28792">
        <ele>318.21988566975</ele>
        <time>2017-11-18T14:59:25Z</time>
      </trkpt>
      <trkpt lat="43.77775" lon="3.28829">
        <ele>315.3287995199</ele>
        <time>2017-11-18T14:59:59Z</time>
      </trkpt>
      <trkpt lat="43.77771" lon="3.28825">
        <ele>315.3287995199</ele>
        <time>2017-11-18T15:00:03Z</time>
      </trkpt>
      <trkpt lat="43.77742" lon="3.28872">
        <ele>311.68924847816</ele>
        <time>2017-11-18T15:01:00Z</time>
      </trkpt>
      <trkpt lat="43.7774" lon="3.28868">
        <ele>311.68924847816</ele>
        <time>2017-11-18T15:01:22Z</time>
      </trkpt>
      <trkpt lat="43.77741" lon="3.28874">
        <ele>311.68924847816</ele>
        <time>2017-11-18T15:01:41Z</time>
      </trkpt>
      <trkpt lat="43.77733" lon="3.28877">
        <ele>308.6108174175</ele>
        <time>2017-11-18T15:01:41Z</time>
      </trkpt>
      <trkpt lat="43.77731" lon="3.28916">
        <ele>305.86438069202</ele>
        <time>2017-11-18T15:02:08Z</time>
      </trkpt>
      <trkpt lat="43.77735" lon="3.28991">
        <ele>303.66921218774</ele>
        <time>2017-11-18T15:03:08Z</time>
      </trkpt>
      <trkpt lat="43.77733" lon="3.29006">
        <ele>301.76593348919</ele>
        <time>2017-11-18T15:03:08Z</time>
      </trkpt>
      <trkpt lat="43.77699" lon="3.29045">
        <ele>299.82708679903</ele>
        <time>2017-11-18T15:03:41Z</time>
      </trkpt>
      <trkpt lat="43.77696" lon="3.29058">
        <ele>298.11155204278</ele>
        <time>2017-11-18T15:03:41Z</time>
      </trkpt>
      <trkpt lat="43.77695" lon="3.29084">
        <ele>296.61372494463</ele>
        <time>2017-11-18T15:03:58Z</time>
      </trkpt>
      <trkpt lat="43.77694" lon="3.29093">
        <ele>296.61372494463</ele>
        <time>2017-11-18T15:04:06Z</time>
      </trkpt>
      <trkpt lat="43.77615" lon="3.29046">
        <ele>296.3655527394</ele>
        <time>2017-11-18T15:05:48Z</time>
      </trkpt>
      <trkpt lat="43.77604" lon="3.29043">
        <ele>296.37432431956</ele>
        <time>2017-11-18T15:05:53Z</time>
      </trkpt>
      <trkpt lat="43.77595" lon="3.29044">
        <ele>296.62759382135</ele>
        <time>2017-11-18T15:06:15Z</time>
      </trkpt>
      <trkpt lat="43.7758" lon="3.29058">
        <ele>297.17096047003</ele>
        <time>2017-11-18T15:06:15Z</time>
      </trkpt>
      <trkpt lat="43.77563" lon="3.29077">
        <ele>297.95957826263</ele>
        <time>2017-11-18T15:06:40Z</time>
      </trkpt>
      <trkpt lat="43.77557" lon="3.29086">
        <ele>297.95957826263</ele>
        <time>2017-11-18T15:06:40Z</time>
      </trkpt>
      <trkpt lat="43.77541" lon="3.29107">
        <ele>299.67196292474</ele>
        <time>2017-11-18T15:07:23Z</time>
      </trkpt>
      <trkpt lat="43.77534" lon="3.29113">
        <ele>299.67196292474</ele>
        <time>2017-11-18T15:07:58Z</time>
      </trkpt>
      <trkpt lat="43.77537" lon="3.29116">
        <ele>301.65182150164</ele>
        <time>2017-11-18T15:08:06Z</time>
      </trkpt>
      <trkpt lat="43.77598" lon="3.29051">
        <ele>302.87263063586</ele>
        <time>2017-11-18T15:15:57Z</time>
      </trkpt>
      <trkpt lat="43.77662" lon="3.29102">
        <ele>304.17262987542</ele>
        <time>2017-11-18T15:16:15Z</time>
      </trkpt>
      <trkpt lat="43.77731" lon="3.28889">
        <ele>305.29092082575</ele>
        <time>2017-11-18T15:16:56Z</time>
      </trkpt>
      <trkpt lat="43.77739" lon="3.28884">
        <ele>306.36124125196</ele>
        <time>2017-11-18T15:16:58Z</time>
      </trkpt>
      <trkpt lat="43.7779" lon="3.2893">
        <ele>307.33498535661</ele>
        <time>2017-11-18T15:17:13Z</time>
      </trkpt>
      <trkpt lat="43.77816" lon="3.28916">
        <ele>308.16767385311</ele>
        <time>2017-11-18T15:17:21Z</time>
      </trkpt>
      <trkpt lat="43.77871" lon="3.28865">
        <ele>308.8620121807</ele>
        <time>2017-11-18T15:17:30Z</time>
      </trkpt>
      <trkpt lat="43.77896" lon="3.28848">
        <ele>309.52206252703</ele>
        <time>2017-11-18T15:17:33Z</time>
      </trkpt>
      <trkpt lat="43.78167" lon="3.2865">
        <ele>310.12933904312</ele>
        <time>2017-11-18T15:18:19Z</time>
      </trkpt>
      <trkpt lat="43.78409" lon="3.2846">
        <ele>311.96415162637</ele>
        <time>2017-11-18T15:19:00Z</time>
      </trkpt>
      <trkpt lat="43.78473" lon="3.28428">
        <ele>313.88941595816</ele>
        <time>2017-11-18T15:19:00Z</time>
      </trkpt>
      <trkpt lat="43.78596" lon="3.28332">
        <ele>316.60977341078</ele>
        <time>2017-11-18T15:19:17Z</time>
      </trkpt>
      <trkpt lat="43.78604" lon="3.28328">
        <ele>316.60977341078</ele>
        <time>2017-11-18T15:19:24Z</time>
      </trkpt>
      <trkpt lat="43.78639" lon="3.28296">
        <ele>319.65210560205</ele>
        <time>2017-11-18T15:19:24Z</time>
      </trkpt>
      <trkpt lat="43.78669" lon="3.28239">
        <ele>322.70715553598</ele>
        <time>2017-11-18T15:19:30Z</time>
      </trkpt>
      <trkpt lat="43.78692" lon="3.28214">
        <ele>325.61836771253</ele>
        <time>2017-11-18T15:19:36Z</time>
      </trkpt>
      <trkpt lat="43.78733" lon="3.28174">
        <ele>328.47199722817</ele>
        <time>2017-11-18T15:19:38Z</time>
      </trkpt>
      <trkpt lat="43.78788" lon="3.28121">
        <ele>331.44933908141</ele>
        <time>2017-11-18T15:19:45Z</time>
      </trkpt>
      <trkpt lat="43.78815" lon="3.28121">
        <ele>334.41573292133</ele>
        <time>2017-11-18T15:19:48Z</time>
      </trkpt>
      <trkpt lat="43.78987" lon="3.27953">
        <ele>338.86083638631</ele>
        <time>2017-11-18T15:20:12Z</time>
      </trkpt>
      <trkpt lat="43.78994" lon="3.27947">
        <ele>338.86083638631</ele>
        <time>2017-11-18T15:20:17Z</time>
      </trkpt>
      <trkpt lat="43.79032" lon="3.27915">
        <ele>343.30768626281</ele>
        <time>2017-11-18T15:20:19Z</time>
      </trkpt>
      <trkpt lat="43.79143" lon="3.27694">
        <ele>349.70273855629</ele>
        <time>2017-11-18T15:20:41Z</time>
      </trkpt>
      <trkpt lat="43.79196" lon="3.27433">
        <ele>357.85565394414</ele>
        <time>2017-11-18T15:21:01Z</time>
      </trkpt>
      <trkpt lat="43.79151" lon="3.27397">
        <ele>365.79857959868</ele>
        <time>2017-11-18T15:21:06Z</time>
      </trkpt>
      <trkpt lat="43.79115" lon="3.27249">
        <ele>375.02381081824</ele>
        <time>2017-11-18T15:21:35Z</time>
      </trkpt>
      <trkpt lat="43.79253" lon="3.27279">
        <ele>385.15274733471</ele>
        <time>2017-11-18T15:21:48Z</time>
      </trkpt>
      <trkpt lat="43.79489" lon="3.272">
        <ele>397.90778963503</ele>
        <time>2017-11-18T15:22:24Z</time>
      </trkpt>
      <trkpt lat="43.79525" lon="3.27127">
        <ele>410.42497774373</ele>
        <time>2017-11-18T15:22:24Z</time>
      </trkpt>
      <trkpt lat="43.79626" lon="3.27046">
        <ele>423.25128854088</ele>
        <time>2017-11-18T15:22:40Z</time>
      </trkpt>
      <trkpt lat="43.79644" lon="3.26993">
        <ele>435.46661598857</ele>
        <time>2017-11-18T15:22:40Z</time>
      </trkpt>
      <trkpt lat="43.79666" lon="3.26898">
        <ele>447.54669210893</ele>
        <time>2017-11-18T15:22:57Z</time>
      </trkpt>
      <trkpt lat="43.79721" lon="3.26906">
        <ele>459.68844207977</ele>
        <time>2017-11-18T15:22:57Z</time>
      </trkpt>
      <trkpt lat="43.79755" lon="3.2687">
        <ele>471.58495597884</ele>
        <time>2017-11-18T15:23:13Z</time>
      </trkpt>
      <trkpt lat="43.7978" lon="3.2678">
        <ele>483.18394255458</ele>
        <time>2017-11-18T15:23:13Z</time>
      </trkpt>
      <trkpt lat="43.7982" lon="3.2667">
        <ele>494.75565861327</ele>
        <time>2017-11-18T15:23:32Z</time>
      </trkpt>
      <trkpt lat="43.79992" lon="3.26578">
        <ele>507.77637458602</ele>
        <time>2017-11-18T15:23:47Z</time>
      </trkpt>
      <trkpt lat="43.8001" lon="3.26698">
        <ele>522.84692419302</ele>
        <time>2017-11-18T15:24:20Z</time>
      </trkpt>
      <trkpt lat="43.8002" lon="3.26653">
        <ele>536.71459975021</ele>
        <time>2017-11-18T15:24:20Z</time>
      </trkpt>
      <trkpt lat="43.80061" lon="3.26558">
        <ele>550.07356558569</ele>
        <time>2017-11-18T15:24:29Z</time>
      </trkpt>
      <trkpt lat="43.80107" lon="3.265">
        <ele>563.7422695246</ele>
        <time>2017-11-18T15:24:54Z</time>
      </trkpt>
      <trkpt lat="43.80113" lon="3.26716">
        <ele>578.23410912014</ele>
        <time>2017-11-18T15:25:08Z</time>
      </trkpt>
      <trkpt lat="43.80177" lon="3.26751">
        <ele>592.10671920208</ele>
        <time>2017-11-18T15:25:27Z</time>
      </trkpt>
      <trkpt lat="43.80248" lon="3.26766">
        <ele>605.79893866366</ele>
        <time>2017-11-18T15:25:27Z</time>
      </trkpt>
      <trkpt lat="43.80362" lon="3.26892">
        <ele>620.02145702218</ele>
        <time>2017-11-18T15:25:43Z</time>
      </trkpt>
      <trkpt lat="43.80372" lon="3.26897">
        <ele>632.6220474729</ele>
        <time>2017-11-18T15:25:44Z</time>
      </trkpt>
      <trkpt lat="43.80446" lon="3.26928">
        <ele>644.6239956971</ele>
        <time>2017-11-18T15:26:00Z</time>
      </trkpt>
      <trkpt lat="43.80343" lon="3.2666">
        <ele>659.15410394512</ele>
        <time>2017-11-18T15:26:41Z</time>
      </trkpt>
      <trkpt lat="43.80292" lon="3.26615">
        <ele>673.20915848297</ele>
        <time>2017-11-18T15:26:58Z</time>
      </trkpt>
      <trkpt lat="43.80293" lon="3.26612">
        <ele>673.20915848297</ele>
        <time>2017-11-18T15:27:00Z</time>
      </trkpt>
      <trkpt lat="43.80289" lon="3.26612">
        <ele>673.20915848297</ele>
        <time>2017-11-18T15:27:10Z</time>
      </trkpt>
      <trkpt lat="43.80291" lon="3.26611">
        <ele>673.20915848297</ele>
        <time>2017-11-18T15:27:13Z</time>
      </trkpt>
      <trkpt lat="43.80292" lon="3.2661">
        <ele>673.20915848297</ele>
        <time>2017-11-18T15:27:37Z</time>
      </trkpt>
      <trkpt lat="43.80292" lon="3.26602">
        <ele>684.03761201249</ele>
        <time>2017-11-18T15:29:09Z</time>
      </trkpt>
      <trkpt lat="43.803" lon="3.2661">
        <ele>692.99097015092</ele>
        <time>2017-11-18T15:29:42Z</time>
      </trkpt>
      <trkpt lat="43.80302" lon="3.2661">
        <ele>692.99097015092</ele>
        <time>2017-11-18T15:29:42Z</time>
      </trkpt>
      <trkpt lat="43.80301" lon="3.26617">
        <ele>692.99097015092</ele>
        <time>2017-11-18T15:31:59Z</time>
      </trkpt>
      <trkpt lat="43.80331" lon="3.26643">
        <ele>699.30999793431</ele>
        <time>2017-11-18T15:31:59Z</time>
      </trkpt>
      <trkpt lat="43.80409" lon="3.26802">
        <ele>704.20167404168</ele>
        <time>2017-11-18T15:32:18Z</time>
      </trkpt>
      <trkpt lat="43.80257" lon="3.26769">
        <ele>706.80029556448</ele>
        <time>2017-11-18T15:33:16Z</time>
      </trkpt>
      <trkpt lat="43.80181" lon="3.26751">
        <ele>708.14102679008</ele>
        <time>2017-11-18T15:33:16Z</time>
      </trkpt>
      <trkpt lat="43.80092" lon="3.26479">
        <ele>706.50658198447</ele>
        <time>2017-11-18T15:33:46Z</time>
      </trkpt>
      <trkpt lat="43.80002" lon="3.26675">
        <ele>701.97187285034</ele>
        <time>2017-11-18T15:34:13Z</time>
      </trkpt>
      <trkpt lat="43.79976" lon="3.26557">
        <ele>694.03829754884</ele>
        <time>2017-11-18T15:34:43Z</time>
      </trkpt>
      <trkpt lat="43.79834" lon="3.26635">
        <ele>682.72914144707</ele>
        <time>2017-11-18T15:35:00Z</time>
      </trkpt>
      <trkpt lat="43.79829" lon="3.26645">
        <ele>682.72914144707</ele>
        <time>2017-11-18T15:35:00Z</time>
      </trkpt>
      <trkpt lat="43.79748" lon="3.26888">
        <ele>667.85928382815</ele>
        <time>2017-11-18T15:35:19Z</time>
      </trkpt>
      <trkpt lat="43.79732" lon="3.26909">
        <ele>653.0283275383</ele>
        <time>2017-11-18T15:35:23Z</time>
      </trkpt>
      <trkpt lat="43.79658" lon="3.26906">
        <ele>637.17561105042</ele>
        <time>2017-11-18T15:35:33Z</time>
      </trkpt>
      <trkpt lat="43.79642" lon="3.26995">
        <ele>621.05007527351</ele>
        <time>2017-11-18T15:35:41Z</time>
      </trkpt>
      <trkpt lat="43.79608" lon="3.27079">
        <ele>604.85575217807</ele>
        <time>2017-11-18T15:35:48Z</time>
      </trkpt>
      <trkpt lat="43.7956" lon="3.27117">
        <ele>588.85310100346</ele>
        <time>2017-11-18T15:35:53Z</time>
      </trkpt>
      <trkpt lat="43.79284" lon="3.27299">
        <ele>568.33891480022</ele>
        <time>2017-11-18T15:36:26Z</time>
      </trkpt>
      <trkpt lat="43.79129" lon="3.27292">
        <ele>546.72019325318</ele>
        <time>2017-11-18T15:36:47Z</time>
      </trkpt>
      <trkpt lat="43.79104" lon="3.27237">
        <ele>525.58468338921</ele>
        <time>2017-11-18T15:36:48Z</time>
      </trkpt>
      <trkpt lat="43.79075" lon="3.27291">
        <ele>504.35436552866</ele>
        <time>2017-11-18T15:36:57Z</time>
      </trkpt>
      <trkpt lat="43.79077" lon="3.27302">
        <ele>504.35436552866</ele>
        <time>2017-11-18T15:37:00Z</time>
      </trkpt>
      <trkpt lat="43.79173" lon="3.2741">
        <ele>482.75182144557</ele>
        <time>2017-11-18T15:37:21Z</time>
      </trkpt>
      <trkpt lat="43.79046" lon="3.27898">
        <ele>457.8677645068</ele>
        <time>2017-11-18T15:37:51Z</time>
      </trkpt>
      <trkpt lat="43.79037" lon="3.27907">
        <ele>434.99783311633</ele>
        <time>2017-11-18T15:37:52Z</time>
      </trkpt>
      <trkpt lat="43.79029" lon="3.27916">
        <ele>414.069316455</ele>
        <time>2017-11-18T15:37:53Z</time>
      </trkpt>
      <trkpt lat="43.78765" lon="3.2813">
        <ele>391.5776179915</ele>
        <time>2017-11-18T15:38:22Z</time>
      </trkpt>
      <trkpt lat="43.78633" lon="3.28311">
        <ele>369.24980063157</ele>
        <time>2017-11-18T15:38:47Z</time>
      </trkpt>
      <trkpt lat="43.78496" lon="3.28401">
        <ele>347.63152519277</ele>
        <time>2017-11-18T15:39:00Z</time>
      </trkpt>
      <trkpt lat="43.78462" lon="3.28429">
        <ele>327.77189781663</ele>
        <time>2017-11-18T15:39:00Z</time>
      </trkpt>
      <trkpt lat="43.78367" lon="3.28499">
        <ele>309.16596057247</ele>
        <time>2017-11-18T15:39:15Z</time>
      </trkpt>
      <trkpt lat="43.78333" lon="3.28526">
        <ele>292.34897206342</ele>
        <time>2017-11-18T15:39:16Z</time>
      </trkpt>
      <trkpt lat="43.78316" lon="3.28533">
        <ele>277.44944735781</ele>
        <time>2017-11-18T15:39:18Z</time>
      </trkpt>
      <trkpt lat="43.78241" lon="3.28585">
        <ele>263.67108410998</ele>
        <time>2017-11-18T15:39:28Z</time>
      </trkpt>
      <trkpt lat="43.78044" lon="3.2876">
        <ele>250.7032129423</ele>
        <time>2017-11-18T15:39:52Z</time>
      </trkpt>
      <trkpt lat="43.78037" lon="3.28766">
        <ele>250.7032129423</ele>
        <time>2017-11-18T15:39:53Z</time>
      </trkpt>
      <trkpt lat="43.78006" lon="3.28803">
        <ele>239.23367815303</ele>
        <time>2017-11-18T15:40:21Z</time>
      </trkpt>
      <trkpt lat="43.77875" lon="3.28861">
        <ele>228.25080644961</ele>
        <time>2017-11-18T15:40:21Z</time>
      </trkpt>
      <trkpt lat="43.77825" lon="3.28907">
        <ele>218.52896192817</ele>
        <time>2017-11-18T15:40:38Z</time>
      </trkpt>
      <trkpt lat="43.77796" lon="3.28921">
        <ele>210.23271700526</ele>
        <time>2017-11-18T15:40:38Z</time>
      </trkpt>
      <trkpt lat="43.77755" lon="3.28879">
        <ele>203.16303922084</ele>
        <time>2017-11-18T15:40:52Z</time>
      </trkpt>
      <trkpt lat="43.77752" lon="3.28877">
        <ele>203.16303922084</ele>
        <time>2017-11-18T15:40:53Z</time>
      </trkpt>
      <trkpt lat="43.77713" lon="3.29016">
        <ele>197.15935385483</ele>
        <time>2017-11-18T15:41:21Z</time>
      </trkpt>
      <trkpt lat="43.77706" lon="3.29057">
        <ele>192.7169602448</ele>
        <time>2017-11-18T15:41:25Z</time>
      </trkpt>
      <trkpt lat="43.77692" lon="3.29114">
        <ele>189.89998194532</ele>
        <time>2017-11-18T15:41:39Z</time>
      </trkpt>
      <trkpt lat="43.77691" lon="3.29114">
        <ele>189.89998194532</ele>
        <time>2017-11-18T15:41:43Z</time>
      </trkpt>
    </trkseg>
  </trk>
</gpx>